<?xml version="1.0" encoding="UTF-8" standalone="no" ?>
<gpx xmlns="http://www.topografix.com/GPX/1/1" xmlns:xsi="http://www.w3.org/2001/XMLSchema-instance" xsi:schemaLocation="http://www.topografix.com/GPX/1/1 http://www.topografix.com/GPX/1/1/gpx.xsd" version="1.1" creator="VisuGPX - https://www.visugpx.com">
  <metadata>
    <name>Boucle de la cascade du Faillitoux</name>
    <desc><![CDATA[Au départ du parking de la cascade cette rando permet de remonter vers l\'Elancèze. La descente se fait en passant par le puy de La poche et le col de Lagat. La descente finale offre plusieurs beaux points de vue sur la coulée basalitique de laquelle tombe la cascade.]]></desc>
  </metadata>
  <trk>
    <name><![CDATA[2014-05-31-01]]></name>
    <trkseg>
      <trkpt lat="45.02811" lon="2.64106">
        <ele>1049</ele>
        <time>2014-05-31T07:26:48Z</time>
      </trkpt>
      <trkpt lat="45.02812" lon="2.64106">
        <ele>1049.1</ele>
        <time>2014-05-31T07:26:49Z</time>
      </trkpt>
      <trkpt lat="45.02805" lon="2.64095">
        <ele>1049</ele>
        <time>2014-05-31T07:27:15Z</time>
      </trkpt>
      <trkpt lat="45.02797" lon="2.64089">
        <ele>1050.1</ele>
        <time>2014-05-31T07:27:23Z</time>
      </trkpt>
      <trkpt lat="45.02788" lon="2.64081">
        <ele>1049.5</ele>
        <time>2014-05-31T07:27:30Z</time>
      </trkpt>
      <trkpt lat="45.02781" lon="2.64074">
        <ele>1048.6</ele>
        <time>2014-05-31T07:27:37Z</time>
      </trkpt>
      <trkpt lat="45.02773" lon="2.64065">
        <ele>1047.5</ele>
        <time>2014-05-31T07:27:44Z</time>
      </trkpt>
      <trkpt lat="45.02765" lon="2.64056">
        <ele>1047.2</ele>
        <time>2014-05-31T07:27:55Z</time>
      </trkpt>
      <trkpt lat="45.02758" lon="2.64047">
        <ele>1047.7</ele>
        <time>2014-05-31T07:28:03Z</time>
      </trkpt>
      <trkpt lat="45.0275" lon="2.64038">
        <ele>1046.5</ele>
        <time>2014-05-31T07:28:11Z</time>
      </trkpt>
      <trkpt lat="45.02741" lon="2.64031">
        <ele>1047.5</ele>
        <time>2014-05-31T07:28:20Z</time>
      </trkpt>
      <trkpt lat="45.02733" lon="2.64025">
        <ele>1047.1</ele>
        <time>2014-05-31T07:28:27Z</time>
      </trkpt>
      <trkpt lat="45.02724" lon="2.64018">
        <ele>1047.4</ele>
        <time>2014-05-31T07:28:35Z</time>
      </trkpt>
      <trkpt lat="45.02716" lon="2.64009">
        <ele>1048.2</ele>
        <time>2014-05-31T07:28:43Z</time>
      </trkpt>
      <trkpt lat="45.02707" lon="2.64004">
        <ele>1049.8</ele>
        <time>2014-05-31T07:28:50Z</time>
      </trkpt>
      <trkpt lat="45.02699" lon="2.63998">
        <ele>1050.4</ele>
        <time>2014-05-31T07:28:57Z</time>
      </trkpt>
      <trkpt lat="45.02692" lon="2.6399">
        <ele>1050.9</ele>
        <time>2014-05-31T07:29:05Z</time>
      </trkpt>
      <trkpt lat="45.02683" lon="2.63983">
        <ele>1051.7</ele>
        <time>2014-05-31T07:29:15Z</time>
      </trkpt>
      <trkpt lat="45.02675" lon="2.63976">
        <ele>1052.1</ele>
        <time>2014-05-31T07:29:25Z</time>
      </trkpt>
      <trkpt lat="45.02668" lon="2.63966">
        <ele>1053.3</ele>
        <time>2014-05-31T07:29:33Z</time>
      </trkpt>
      <trkpt lat="45.0266" lon="2.63956">
        <ele>1054</ele>
        <time>2014-05-31T07:29:40Z</time>
      </trkpt>
      <trkpt lat="45.02655" lon="2.63946">
        <ele>1054</ele>
        <time>2014-05-31T07:29:47Z</time>
      </trkpt>
      <trkpt lat="45.02649" lon="2.63935">
        <ele>1054.6</ele>
        <time>2014-05-31T07:29:55Z</time>
      </trkpt>
      <trkpt lat="45.02643" lon="2.63925">
        <ele>1054.6</ele>
        <time>2014-05-31T07:30:04Z</time>
      </trkpt>
      <trkpt lat="45.02636" lon="2.63914">
        <ele>1055.5</ele>
        <time>2014-05-31T07:30:12Z</time>
      </trkpt>
      <trkpt lat="45.0263" lon="2.63904">
        <ele>1056.2</ele>
        <time>2014-05-31T07:30:20Z</time>
      </trkpt>
      <trkpt lat="45.02625" lon="2.63893">
        <ele>1057</ele>
        <time>2014-05-31T07:30:28Z</time>
      </trkpt>
      <trkpt lat="45.02619" lon="2.63882">
        <ele>1057.7</ele>
        <time>2014-05-31T07:30:37Z</time>
      </trkpt>
      <trkpt lat="45.02614" lon="2.63871">
        <ele>1059.2</ele>
        <time>2014-05-31T07:30:45Z</time>
      </trkpt>
      <trkpt lat="45.0261" lon="2.63859">
        <ele>1060.6</ele>
        <time>2014-05-31T07:30:53Z</time>
      </trkpt>
      <trkpt lat="45.02608" lon="2.63846">
        <ele>1061.2</ele>
        <time>2014-05-31T07:31:02Z</time>
      </trkpt>
      <trkpt lat="45.02609" lon="2.63833">
        <ele>1062.3</ele>
        <time>2014-05-31T07:31:12Z</time>
      </trkpt>
      <trkpt lat="45.02608" lon="2.63819">
        <ele>1064.6</ele>
        <time>2014-05-31T07:31:21Z</time>
      </trkpt>
      <trkpt lat="45.02608" lon="2.63806">
        <ele>1065.7</ele>
        <time>2014-05-31T07:31:30Z</time>
      </trkpt>
      <trkpt lat="45.02617" lon="2.63797">
        <ele>1067.3</ele>
        <time>2014-05-31T07:31:57Z</time>
      </trkpt>
      <trkpt lat="45.02626" lon="2.63802">
        <ele>1068.9</ele>
        <time>2014-05-31T07:32:08Z</time>
      </trkpt>
      <trkpt lat="45.02635" lon="2.63808">
        <ele>1070.9</ele>
        <time>2014-05-31T07:32:21Z</time>
      </trkpt>
      <trkpt lat="45.02643" lon="2.63814">
        <ele>1072.2</ele>
        <time>2014-05-31T07:32:34Z</time>
      </trkpt>
      <trkpt lat="45.0266" lon="2.63824">
        <ele>1076.6</ele>
        <time>2014-05-31T07:32:57Z</time>
      </trkpt>
      <trkpt lat="45.02668" lon="2.63832">
        <ele>1077.9</ele>
        <time>2014-05-31T07:33:09Z</time>
      </trkpt>
      <trkpt lat="45.02676" lon="2.63839">
        <ele>1077.7</ele>
        <time>2014-05-31T07:33:19Z</time>
      </trkpt>
      <trkpt lat="45.02685" lon="2.63845">
        <ele>1078.9</ele>
        <time>2014-05-31T07:33:28Z</time>
      </trkpt>
      <trkpt lat="45.02693" lon="2.63852">
        <ele>1078.8</ele>
        <time>2014-05-31T07:33:38Z</time>
      </trkpt>
      <trkpt lat="45.02709" lon="2.63865">
        <ele>1080.5</ele>
        <time>2014-05-31T07:33:58Z</time>
      </trkpt>
      <trkpt lat="45.02715" lon="2.63876">
        <ele>1080.7</ele>
        <time>2014-05-31T07:34:07Z</time>
      </trkpt>
      <trkpt lat="45.02722" lon="2.63885">
        <ele>1081.4</ele>
        <time>2014-05-31T07:34:15Z</time>
      </trkpt>
      <trkpt lat="45.02727" lon="2.63896">
        <ele>1081.1</ele>
        <time>2014-05-31T07:34:24Z</time>
      </trkpt>
      <trkpt lat="45.02735" lon="2.63905">
        <ele>1082.3</ele>
        <time>2014-05-31T07:34:34Z</time>
      </trkpt>
      <trkpt lat="45.02742" lon="2.63914">
        <ele>1084.7</ele>
        <time>2014-05-31T07:34:44Z</time>
      </trkpt>
      <trkpt lat="45.02757" lon="2.63929">
        <ele>1085.2</ele>
        <time>2014-05-31T07:35:02Z</time>
      </trkpt>
      <trkpt lat="45.02766" lon="2.63933">
        <ele>1085.3</ele>
        <time>2014-05-31T07:35:11Z</time>
      </trkpt>
      <trkpt lat="45.02775" lon="2.63936">
        <ele>1086.4</ele>
        <time>2014-05-31T07:35:20Z</time>
      </trkpt>
      <trkpt lat="45.02784" lon="2.63942">
        <ele>1086</ele>
        <time>2014-05-31T07:35:32Z</time>
      </trkpt>
      <trkpt lat="45.02792" lon="2.63949">
        <ele>1086.7</ele>
        <time>2014-05-31T07:35:42Z</time>
      </trkpt>
      <trkpt lat="45.02801" lon="2.63953">
        <ele>1087</ele>
        <time>2014-05-31T07:35:52Z</time>
      </trkpt>
      <trkpt lat="45.02817" lon="2.63965">
        <ele>1089.5</ele>
        <time>2014-05-31T07:36:09Z</time>
      </trkpt>
      <trkpt lat="45.02826" lon="2.63969">
        <ele>1090</ele>
        <time>2014-05-31T07:36:20Z</time>
      </trkpt>
      <trkpt lat="45.02836" lon="2.63974">
        <ele>1090.9</ele>
        <time>2014-05-31T07:36:29Z</time>
      </trkpt>
      <trkpt lat="45.02844" lon="2.63979">
        <ele>1091.8</ele>
        <time>2014-05-31T07:36:38Z</time>
      </trkpt>
      <trkpt lat="45.02853" lon="2.63983">
        <ele>1092.9</ele>
        <time>2014-05-31T07:36:54Z</time>
      </trkpt>
      <trkpt lat="45.02877" lon="2.64001">
        <ele>1095.8</ele>
        <time>2014-05-31T07:40:51Z</time>
      </trkpt>
      <trkpt lat="45.02884" lon="2.64012">
        <ele>1097.5</ele>
        <time>2014-05-31T07:41:16Z</time>
      </trkpt>
      <trkpt lat="45.0289" lon="2.64022">
        <ele>1097.5</ele>
        <time>2014-05-31T07:41:27Z</time>
      </trkpt>
      <trkpt lat="45.02897" lon="2.6403">
        <ele>1097.6</ele>
        <time>2014-05-31T07:41:41Z</time>
      </trkpt>
      <trkpt lat="45.02912" lon="2.64044">
        <ele>1097.8</ele>
        <time>2014-05-31T07:42:07Z</time>
      </trkpt>
      <trkpt lat="45.02921" lon="2.64051">
        <ele>1099.1</ele>
        <time>2014-05-31T07:42:17Z</time>
      </trkpt>
      <trkpt lat="45.02925" lon="2.64062">
        <ele>1099.5</ele>
        <time>2014-05-31T07:43:38Z</time>
      </trkpt>
      <trkpt lat="45.02943" lon="2.64065">
        <ele>1100</ele>
        <time>2014-05-31T07:44:18Z</time>
      </trkpt>
      <trkpt lat="45.02951" lon="2.64074">
        <ele>1102.5</ele>
        <time>2014-05-31T07:44:31Z</time>
      </trkpt>
      <trkpt lat="45.0296" lon="2.64081">
        <ele>1102.1</ele>
        <time>2014-05-31T07:44:40Z</time>
      </trkpt>
      <trkpt lat="45.02974" lon="2.64099">
        <ele>1103.4</ele>
        <time>2014-05-31T07:44:57Z</time>
      </trkpt>
      <trkpt lat="45.02981" lon="2.64108">
        <ele>1104.3</ele>
        <time>2014-05-31T07:45:05Z</time>
      </trkpt>
      <trkpt lat="45.02989" lon="2.64113">
        <ele>1105.3</ele>
        <time>2014-05-31T07:45:28Z</time>
      </trkpt>
      <trkpt lat="45.02995" lon="2.64123">
        <ele>1106.1</ele>
        <time>2014-05-31T07:46:01Z</time>
      </trkpt>
      <trkpt lat="45.03013" lon="2.64129">
        <ele>1109.2</ele>
        <time>2014-05-31T07:46:42Z</time>
      </trkpt>
      <trkpt lat="45.03023" lon="2.64131">
        <ele>1111.1</ele>
        <time>2014-05-31T07:46:53Z</time>
      </trkpt>
      <trkpt lat="45.03031" lon="2.64134">
        <ele>1110.9</ele>
        <time>2014-05-31T07:47:21Z</time>
      </trkpt>
      <trkpt lat="45.03048" lon="2.64124">
        <ele>1115.1</ele>
        <time>2014-05-31T07:48:11Z</time>
      </trkpt>
      <trkpt lat="45.03055" lon="2.64116">
        <ele>1118</ele>
        <time>2014-05-31T07:48:23Z</time>
      </trkpt>
      <trkpt lat="45.03067" lon="2.64096">
        <ele>1121.1</ele>
        <time>2014-05-31T07:48:42Z</time>
      </trkpt>
      <trkpt lat="45.03073" lon="2.64085">
        <ele>1123.4</ele>
        <time>2014-05-31T07:48:53Z</time>
      </trkpt>
      <trkpt lat="45.0308" lon="2.64075">
        <ele>1124.5</ele>
        <time>2014-05-31T07:49:04Z</time>
      </trkpt>
      <trkpt lat="45.03088" lon="2.64069">
        <ele>1127.9</ele>
        <time>2014-05-31T07:49:17Z</time>
      </trkpt>
      <trkpt lat="45.03097" lon="2.64064">
        <ele>1128.2</ele>
        <time>2014-05-31T07:49:28Z</time>
      </trkpt>
      <trkpt lat="45.03117" lon="2.64062">
        <ele>1132.3</ele>
        <time>2014-05-31T07:49:48Z</time>
      </trkpt>
      <trkpt lat="45.03126" lon="2.64062">
        <ele>1132.2</ele>
        <time>2014-05-31T07:49:57Z</time>
      </trkpt>
      <trkpt lat="45.03135" lon="2.64063">
        <ele>1134.1</ele>
        <time>2014-05-31T07:50:10Z</time>
      </trkpt>
      <trkpt lat="45.03144" lon="2.64061">
        <ele>1134.3</ele>
        <time>2014-05-31T07:50:21Z</time>
      </trkpt>
      <trkpt lat="45.03152" lon="2.64055">
        <ele>1136.4</ele>
        <time>2014-05-31T07:50:32Z</time>
      </trkpt>
      <trkpt lat="45.03168" lon="2.64041">
        <ele>1138</ele>
        <time>2014-05-31T07:50:55Z</time>
      </trkpt>
      <trkpt lat="45.03178" lon="2.64042">
        <ele>1138.2</ele>
        <time>2014-05-31T07:52:16Z</time>
      </trkpt>
      <trkpt lat="45.03191" lon="2.64026">
        <ele>1143</ele>
        <time>2014-05-31T07:53:03Z</time>
      </trkpt>
      <trkpt lat="45.032" lon="2.64024">
        <ele>1146.9</ele>
        <time>2014-05-31T07:53:16Z</time>
      </trkpt>
      <trkpt lat="45.03209" lon="2.64021">
        <ele>1147.6</ele>
        <time>2014-05-31T07:53:30Z</time>
      </trkpt>
      <trkpt lat="45.03227" lon="2.6403">
        <ele>1148.9</ele>
        <time>2014-05-31T07:53:51Z</time>
      </trkpt>
      <trkpt lat="45.03234" lon="2.64038">
        <ele>1148.2</ele>
        <time>2014-05-31T07:54:01Z</time>
      </trkpt>
      <trkpt lat="45.03243" lon="2.64047">
        <ele>1147.6</ele>
        <time>2014-05-31T07:54:10Z</time>
      </trkpt>
      <trkpt lat="45.03251" lon="2.64055">
        <ele>1149.3</ele>
        <time>2014-05-31T07:54:18Z</time>
      </trkpt>
      <trkpt lat="45.03259" lon="2.64061">
        <ele>1148.7</ele>
        <time>2014-05-31T07:54:28Z</time>
      </trkpt>
      <trkpt lat="45.03269" lon="2.64065">
        <ele>1147.8</ele>
        <time>2014-05-31T07:54:37Z</time>
      </trkpt>
      <trkpt lat="45.03282" lon="2.64082">
        <ele>1148</ele>
        <time>2014-05-31T07:54:51Z</time>
      </trkpt>
      <trkpt lat="45.03289" lon="2.64092">
        <ele>1148.8</ele>
        <time>2014-05-31T07:55:01Z</time>
      </trkpt>
      <trkpt lat="45.03298" lon="2.64096">
        <ele>1149</ele>
        <time>2014-05-31T07:55:10Z</time>
      </trkpt>
      <trkpt lat="45.03307" lon="2.64102">
        <ele>1148.6</ele>
        <time>2014-05-31T07:55:18Z</time>
      </trkpt>
      <trkpt lat="45.03315" lon="2.64109">
        <ele>1149.3</ele>
        <time>2014-05-31T07:55:26Z</time>
      </trkpt>
      <trkpt lat="45.03325" lon="2.64113">
        <ele>1149.5</ele>
        <time>2014-05-31T07:55:34Z</time>
      </trkpt>
      <trkpt lat="45.03333" lon="2.64119">
        <ele>1149.6</ele>
        <time>2014-05-31T07:55:41Z</time>
      </trkpt>
      <trkpt lat="45.03348" lon="2.64133">
        <ele>1150.1</ele>
        <time>2014-05-31T07:55:57Z</time>
      </trkpt>
      <trkpt lat="45.03357" lon="2.64138">
        <ele>1151.2</ele>
        <time>2014-05-31T07:56:07Z</time>
      </trkpt>
      <trkpt lat="45.03366" lon="2.64142">
        <ele>1151.9</ele>
        <time>2014-05-31T07:56:19Z</time>
      </trkpt>
      <trkpt lat="45.03375" lon="2.64145">
        <ele>1152.1</ele>
        <time>2014-05-31T07:56:27Z</time>
      </trkpt>
      <trkpt lat="45.03384" lon="2.64147">
        <ele>1152.7</ele>
        <time>2014-05-31T07:56:35Z</time>
      </trkpt>
      <trkpt lat="45.03394" lon="2.64148">
        <ele>1153.4</ele>
        <time>2014-05-31T07:56:44Z</time>
      </trkpt>
      <trkpt lat="45.03412" lon="2.64148">
        <ele>1156.4</ele>
        <time>2014-05-31T07:56:59Z</time>
      </trkpt>
      <trkpt lat="45.03422" lon="2.64145">
        <ele>1157.2</ele>
        <time>2014-05-31T07:57:08Z</time>
      </trkpt>
      <trkpt lat="45.0343" lon="2.6415">
        <ele>1158.6</ele>
        <time>2014-05-31T07:57:17Z</time>
      </trkpt>
      <trkpt lat="45.03439" lon="2.64155">
        <ele>1159.6</ele>
        <time>2014-05-31T07:57:25Z</time>
      </trkpt>
      <trkpt lat="45.03448" lon="2.6416">
        <ele>1161.3</ele>
        <time>2014-05-31T07:57:33Z</time>
      </trkpt>
      <trkpt lat="45.03457" lon="2.6416">
        <ele>1161.9</ele>
        <time>2014-05-31T07:57:42Z</time>
      </trkpt>
      <trkpt lat="45.03466" lon="2.64162">
        <ele>1163.2</ele>
        <time>2014-05-31T07:57:52Z</time>
      </trkpt>
      <trkpt lat="45.03483" lon="2.64175">
        <ele>1164.6</ele>
        <time>2014-05-31T07:58:09Z</time>
      </trkpt>
      <trkpt lat="45.0349" lon="2.64183">
        <ele>1164.9</ele>
        <time>2014-05-31T07:58:16Z</time>
      </trkpt>
      <trkpt lat="45.03497" lon="2.64193">
        <ele>1165.6</ele>
        <time>2014-05-31T07:58:23Z</time>
      </trkpt>
      <trkpt lat="45.03505" lon="2.642">
        <ele>1167</ele>
        <time>2014-05-31T07:58:31Z</time>
      </trkpt>
      <trkpt lat="45.03512" lon="2.64208">
        <ele>1166.5</ele>
        <time>2014-05-31T07:58:39Z</time>
      </trkpt>
      <trkpt lat="45.0352" lon="2.64215">
        <ele>1165.8</ele>
        <time>2014-05-31T07:58:47Z</time>
      </trkpt>
      <trkpt lat="45.03529" lon="2.64219">
        <ele>1167</ele>
        <time>2014-05-31T07:58:57Z</time>
      </trkpt>
      <trkpt lat="45.03547" lon="2.64233">
        <ele>1170.1</ele>
        <time>2014-05-31T07:59:14Z</time>
      </trkpt>
      <trkpt lat="45.03554" lon="2.64241">
        <ele>1169.9</ele>
        <time>2014-05-31T07:59:22Z</time>
      </trkpt>
      <trkpt lat="45.03562" lon="2.64249">
        <ele>1169.8</ele>
        <time>2014-05-31T07:59:29Z</time>
      </trkpt>
      <trkpt lat="45.03569" lon="2.64258">
        <ele>1170.6</ele>
        <time>2014-05-31T07:59:36Z</time>
      </trkpt>
      <trkpt lat="45.03569" lon="2.64271">
        <ele>1172.3</ele>
        <time>2014-05-31T07:59:59Z</time>
      </trkpt>
      <trkpt lat="45.03558" lon="2.64293">
        <ele>1174.1</ele>
        <time>2014-05-31T08:00:44Z</time>
      </trkpt>
      <trkpt lat="45.03567" lon="2.64288">
        <ele>1173.5</ele>
        <time>2014-05-31T08:01:36Z</time>
      </trkpt>
      <trkpt lat="45.03581" lon="2.64279">
        <ele>1174.4</ele>
        <time>2014-05-31T08:02:14Z</time>
      </trkpt>
      <trkpt lat="45.03584" lon="2.64291">
        <ele>1174.2</ele>
        <time>2014-05-31T08:02:36Z</time>
      </trkpt>
      <trkpt lat="45.03584" lon="2.64304">
        <ele>1175.1</ele>
        <time>2014-05-31T08:02:51Z</time>
      </trkpt>
      <trkpt lat="45.03598" lon="2.64308">
        <ele>1180.4</ele>
        <time>2014-05-31T08:06:02Z</time>
      </trkpt>
      <trkpt lat="45.03615" lon="2.64316">
        <ele>1180.7</ele>
        <time>2014-05-31T08:06:21Z</time>
      </trkpt>
      <trkpt lat="45.03624" lon="2.64321">
        <ele>1181.2</ele>
        <time>2014-05-31T08:06:34Z</time>
      </trkpt>
      <trkpt lat="45.03632" lon="2.64328">
        <ele>1182.7</ele>
        <time>2014-05-31T08:06:44Z</time>
      </trkpt>
      <trkpt lat="45.03641" lon="2.64335">
        <ele>1182.8</ele>
        <time>2014-05-31T08:06:55Z</time>
      </trkpt>
      <trkpt lat="45.0365" lon="2.64342">
        <ele>1183.4</ele>
        <time>2014-05-31T08:07:04Z</time>
      </trkpt>
      <trkpt lat="45.03663" lon="2.64361">
        <ele>1185.6</ele>
        <time>2014-05-31T08:07:26Z</time>
      </trkpt>
      <trkpt lat="45.03669" lon="2.64371">
        <ele>1185.4</ele>
        <time>2014-05-31T08:07:35Z</time>
      </trkpt>
      <trkpt lat="45.03675" lon="2.64382">
        <ele>1186.7</ele>
        <time>2014-05-31T08:07:43Z</time>
      </trkpt>
      <trkpt lat="45.0368" lon="2.64394">
        <ele>1188.5</ele>
        <time>2014-05-31T08:07:52Z</time>
      </trkpt>
      <trkpt lat="45.03684" lon="2.64406">
        <ele>1187.6</ele>
        <time>2014-05-31T08:07:59Z</time>
      </trkpt>
      <trkpt lat="45.0369" lon="2.64417">
        <ele>1187.6</ele>
        <time>2014-05-31T08:08:06Z</time>
      </trkpt>
      <trkpt lat="45.03702" lon="2.64437">
        <ele>1190.9</ele>
        <time>2014-05-31T08:08:23Z</time>
      </trkpt>
      <trkpt lat="45.03707" lon="2.6445">
        <ele>1192.8</ele>
        <time>2014-05-31T08:08:32Z</time>
      </trkpt>
      <trkpt lat="45.03709" lon="2.64463">
        <ele>1193.3</ele>
        <time>2014-05-31T08:08:42Z</time>
      </trkpt>
      <trkpt lat="45.03704" lon="2.64474">
        <ele>1194.6</ele>
        <time>2014-05-31T08:08:52Z</time>
      </trkpt>
      <trkpt lat="45.03698" lon="2.64482">
        <ele>1195</ele>
        <time>2014-05-31T08:09:02Z</time>
      </trkpt>
      <trkpt lat="45.03689" lon="2.64492">
        <ele>1194.9</ele>
        <time>2014-05-31T08:09:12Z</time>
      </trkpt>
      <trkpt lat="45.03685" lon="2.64515">
        <ele>1199.1</ele>
        <time>2014-05-31T08:09:31Z</time>
      </trkpt>
      <trkpt lat="45.03689" lon="2.64526">
        <ele>1199.7</ele>
        <time>2014-05-31T08:09:43Z</time>
      </trkpt>
      <trkpt lat="45.03695" lon="2.64538">
        <ele>1201.3</ele>
        <time>2014-05-31T08:10:09Z</time>
      </trkpt>
      <trkpt lat="45.037" lon="2.6455">
        <ele>1201.7</ele>
        <time>2014-05-31T08:10:19Z</time>
      </trkpt>
      <trkpt lat="45.03702" lon="2.64576">
        <ele>1204.2</ele>
        <time>2014-05-31T08:10:55Z</time>
      </trkpt>
      <trkpt lat="45.03705" lon="2.64589">
        <ele>1205.6</ele>
        <time>2014-05-31T08:11:04Z</time>
      </trkpt>
      <trkpt lat="45.03708" lon="2.64602">
        <ele>1207.5</ele>
        <time>2014-05-31T08:11:14Z</time>
      </trkpt>
      <trkpt lat="45.0371" lon="2.64615">
        <ele>1207.4</ele>
        <time>2014-05-31T08:11:23Z</time>
      </trkpt>
      <trkpt lat="45.03717" lon="2.6464">
        <ele>1208.1</ele>
        <time>2014-05-31T08:11:42Z</time>
      </trkpt>
      <trkpt lat="45.03721" lon="2.64651">
        <ele>1210.1</ele>
        <time>2014-05-31T08:11:53Z</time>
      </trkpt>
      <trkpt lat="45.03728" lon="2.64661">
        <ele>1212.3</ele>
        <time>2014-05-31T08:12:03Z</time>
      </trkpt>
      <trkpt lat="45.03734" lon="2.64671">
        <ele>1214</ele>
        <time>2014-05-31T08:12:12Z</time>
      </trkpt>
      <trkpt lat="45.03742" lon="2.64678">
        <ele>1215.5</ele>
        <time>2014-05-31T08:12:22Z</time>
      </trkpt>
      <trkpt lat="45.0375" lon="2.64686">
        <ele>1217.3</ele>
        <time>2014-05-31T08:12:32Z</time>
      </trkpt>
      <trkpt lat="45.03762" lon="2.64705">
        <ele>1221.1</ele>
        <time>2014-05-31T08:12:53Z</time>
      </trkpt>
      <trkpt lat="45.03767" lon="2.64715">
        <ele>1222.8</ele>
        <time>2014-05-31T08:13:03Z</time>
      </trkpt>
      <trkpt lat="45.03772" lon="2.64726">
        <ele>1224.7</ele>
        <time>2014-05-31T08:13:14Z</time>
      </trkpt>
      <trkpt lat="45.03774" lon="2.64739">
        <ele>1226.9</ele>
        <time>2014-05-31T08:13:23Z</time>
      </trkpt>
      <trkpt lat="45.03777" lon="2.64751">
        <ele>1228.5</ele>
        <time>2014-05-31T08:13:32Z</time>
      </trkpt>
      <trkpt lat="45.0378" lon="2.64764">
        <ele>1231.5</ele>
        <time>2014-05-31T08:13:43Z</time>
      </trkpt>
      <trkpt lat="45.03795" lon="2.6478">
        <ele>1235.7</ele>
        <time>2014-05-31T08:14:27Z</time>
      </trkpt>
      <trkpt lat="45.03803" lon="2.64785">
        <ele>1236.4</ele>
        <time>2014-05-31T08:14:36Z</time>
      </trkpt>
      <trkpt lat="45.03812" lon="2.6479">
        <ele>1236.2</ele>
        <time>2014-05-31T08:14:44Z</time>
      </trkpt>
      <trkpt lat="45.03829" lon="2.64802">
        <ele>1237.6</ele>
        <time>2014-05-31T08:15:02Z</time>
      </trkpt>
      <trkpt lat="45.03837" lon="2.64809">
        <ele>1238.7</ele>
        <time>2014-05-31T08:15:11Z</time>
      </trkpt>
      <trkpt lat="45.03845" lon="2.64814">
        <ele>1239.8</ele>
        <time>2014-05-31T08:15:20Z</time>
      </trkpt>
      <trkpt lat="45.03854" lon="2.64819">
        <ele>1239.3</ele>
        <time>2014-05-31T08:15:28Z</time>
      </trkpt>
      <trkpt lat="45.03863" lon="2.64825">
        <ele>1240.4</ele>
        <time>2014-05-31T08:15:36Z</time>
      </trkpt>
      <trkpt lat="45.03872" lon="2.64831">
        <ele>1240.5</ele>
        <time>2014-05-31T08:15:45Z</time>
      </trkpt>
      <trkpt lat="45.0389" lon="2.64829">
        <ele>1243.5</ele>
        <time>2014-05-31T08:17:18Z</time>
      </trkpt>
      <trkpt lat="45.03907" lon="2.64823">
        <ele>1243.7</ele>
        <time>2014-05-31T08:17:36Z</time>
      </trkpt>
      <trkpt lat="45.03916" lon="2.64817">
        <ele>1244.3</ele>
        <time>2014-05-31T08:17:45Z</time>
      </trkpt>
      <trkpt lat="45.03925" lon="2.64816">
        <ele>1244.2</ele>
        <time>2014-05-31T08:17:53Z</time>
      </trkpt>
      <trkpt lat="45.03934" lon="2.64813">
        <ele>1244.7</ele>
        <time>2014-05-31T08:18:02Z</time>
      </trkpt>
      <trkpt lat="45.03944" lon="2.64809">
        <ele>1243.9</ele>
        <time>2014-05-31T08:18:11Z</time>
      </trkpt>
      <trkpt lat="45.03953" lon="2.64804">
        <ele>1244.4</ele>
        <time>2014-05-31T08:18:20Z</time>
      </trkpt>
      <trkpt lat="45.03971" lon="2.64795">
        <ele>1243.8</ele>
        <time>2014-05-31T08:18:36Z</time>
      </trkpt>
      <trkpt lat="45.0398" lon="2.64789">
        <ele>1244.7</ele>
        <time>2014-05-31T08:18:44Z</time>
      </trkpt>
      <trkpt lat="45.03989" lon="2.64784">
        <ele>1245.4</ele>
        <time>2014-05-31T08:18:53Z</time>
      </trkpt>
      <trkpt lat="45.03998" lon="2.64777">
        <ele>1245.7</ele>
        <time>2014-05-31T08:19:02Z</time>
      </trkpt>
      <trkpt lat="45.04006" lon="2.6477">
        <ele>1245.4</ele>
        <time>2014-05-31T08:19:10Z</time>
      </trkpt>
      <trkpt lat="45.04014" lon="2.64763">
        <ele>1246.2</ele>
        <time>2014-05-31T08:19:18Z</time>
      </trkpt>
      <trkpt lat="45.04023" lon="2.64757">
        <ele>1246.4</ele>
        <time>2014-05-31T08:19:26Z</time>
      </trkpt>
      <trkpt lat="45.0404" lon="2.64746">
        <ele>1245.9</ele>
        <time>2014-05-31T08:19:46Z</time>
      </trkpt>
      <trkpt lat="45.04049" lon="2.6474">
        <ele>1246.2</ele>
        <time>2014-05-31T08:19:54Z</time>
      </trkpt>
      <trkpt lat="45.04058" lon="2.64733">
        <ele>1247</ele>
        <time>2014-05-31T08:20:03Z</time>
      </trkpt>
      <trkpt lat="45.04066" lon="2.64727">
        <ele>1246.6</ele>
        <time>2014-05-31T08:20:11Z</time>
      </trkpt>
      <trkpt lat="45.04075" lon="2.64722">
        <ele>1246.7</ele>
        <time>2014-05-31T08:20:20Z</time>
      </trkpt>
      <trkpt lat="45.04083" lon="2.64715">
        <ele>1248.4</ele>
        <time>2014-05-31T08:20:28Z</time>
      </trkpt>
      <trkpt lat="45.04099" lon="2.64703">
        <ele>1249.8</ele>
        <time>2014-05-31T08:20:46Z</time>
      </trkpt>
      <trkpt lat="45.04107" lon="2.64696">
        <ele>1250.3</ele>
        <time>2014-05-31T08:20:56Z</time>
      </trkpt>
      <trkpt lat="45.04114" lon="2.64687">
        <ele>1250.8</ele>
        <time>2014-05-31T08:22:05Z</time>
      </trkpt>
      <trkpt lat="45.04126" lon="2.64708">
        <ele>1251.4</ele>
        <time>2014-05-31T08:22:34Z</time>
      </trkpt>
      <trkpt lat="45.0413" lon="2.6472">
        <ele>1253.8</ele>
        <time>2014-05-31T08:22:56Z</time>
      </trkpt>
      <trkpt lat="45.04135" lon="2.6473">
        <ele>1253.2</ele>
        <time>2014-05-31T08:23:05Z</time>
      </trkpt>
      <trkpt lat="45.04142" lon="2.6474">
        <ele>1254.1</ele>
        <time>2014-05-31T08:23:15Z</time>
      </trkpt>
      <trkpt lat="45.04158" lon="2.64751">
        <ele>1255.8</ele>
        <time>2014-05-31T08:24:23Z</time>
      </trkpt>
      <trkpt lat="45.04175" lon="2.64765">
        <ele>1256.8</ele>
        <time>2014-05-31T08:24:41Z</time>
      </trkpt>
      <trkpt lat="45.04183" lon="2.64771">
        <ele>1256.9</ele>
        <time>2014-05-31T08:24:51Z</time>
      </trkpt>
      <trkpt lat="45.04192" lon="2.64776">
        <ele>1258.4</ele>
        <time>2014-05-31T08:25:02Z</time>
      </trkpt>
      <trkpt lat="45.04201" lon="2.64781">
        <ele>1259.3</ele>
        <time>2014-05-31T08:25:13Z</time>
      </trkpt>
      <trkpt lat="45.04209" lon="2.64786">
        <ele>1259.3</ele>
        <time>2014-05-31T08:25:24Z</time>
      </trkpt>
      <trkpt lat="45.04226" lon="2.64798">
        <ele>1262.3</ele>
        <time>2014-05-31T08:25:42Z</time>
      </trkpt>
      <trkpt lat="45.04234" lon="2.64804">
        <ele>1262.8</ele>
        <time>2014-05-31T08:25:50Z</time>
      </trkpt>
      <trkpt lat="45.04242" lon="2.64813">
        <ele>1262.6</ele>
        <time>2014-05-31T08:26:00Z</time>
      </trkpt>
      <trkpt lat="45.04249" lon="2.64822">
        <ele>1264.7</ele>
        <time>2014-05-31T08:26:08Z</time>
      </trkpt>
      <trkpt lat="45.04256" lon="2.64832">
        <ele>1265.5</ele>
        <time>2014-05-31T08:26:17Z</time>
      </trkpt>
      <trkpt lat="45.04264" lon="2.64839">
        <ele>1266.4</ele>
        <time>2014-05-31T08:26:27Z</time>
      </trkpt>
      <trkpt lat="45.04272" lon="2.64829">
        <ele>1270.4</ele>
        <time>2014-05-31T08:27:17Z</time>
      </trkpt>
      <trkpt lat="45.04272" lon="2.64816">
        <ele>1272.6</ele>
        <time>2014-05-31T08:27:31Z</time>
      </trkpt>
      <trkpt lat="45.04288" lon="2.64804">
        <ele>1277.8</ele>
        <time>2014-05-31T08:28:00Z</time>
      </trkpt>
      <trkpt lat="45.04298" lon="2.64802">
        <ele>1279.5</ele>
        <time>2014-05-31T08:28:13Z</time>
      </trkpt>
      <trkpt lat="45.04307" lon="2.648">
        <ele>1279.7</ele>
        <time>2014-05-31T08:28:24Z</time>
      </trkpt>
      <trkpt lat="45.04316" lon="2.64799">
        <ele>1281.9</ele>
        <time>2014-05-31T08:28:37Z</time>
      </trkpt>
      <trkpt lat="45.04334" lon="2.64791">
        <ele>1284.3</ele>
        <time>2014-05-31T08:28:56Z</time>
      </trkpt>
      <trkpt lat="45.04342" lon="2.64785">
        <ele>1286.7</ele>
        <time>2014-05-31T08:29:10Z</time>
      </trkpt>
      <trkpt lat="45.04351" lon="2.64779">
        <ele>1289.2</ele>
        <time>2014-05-31T08:29:22Z</time>
      </trkpt>
      <trkpt lat="45.0436" lon="2.64777">
        <ele>1291.7</ele>
        <time>2014-05-31T08:29:34Z</time>
      </trkpt>
      <trkpt lat="45.0437" lon="2.64774">
        <ele>1293</ele>
        <time>2014-05-31T08:29:47Z</time>
      </trkpt>
      <trkpt lat="45.04388" lon="2.64774">
        <ele>1297.9</ele>
        <time>2014-05-31T08:30:13Z</time>
      </trkpt>
      <trkpt lat="45.04397" lon="2.64771">
        <ele>1298.5</ele>
        <time>2014-05-31T08:30:24Z</time>
      </trkpt>
      <trkpt lat="45.04407" lon="2.6477">
        <ele>1300</ele>
        <time>2014-05-31T08:30:36Z</time>
      </trkpt>
      <trkpt lat="45.04416" lon="2.64768">
        <ele>1301.2</ele>
        <time>2014-05-31T08:30:44Z</time>
      </trkpt>
      <trkpt lat="45.04426" lon="2.64769">
        <ele>1300.1</ele>
        <time>2014-05-31T08:30:52Z</time>
      </trkpt>
      <trkpt lat="45.04444" lon="2.64765">
        <ele>1302.3</ele>
        <time>2014-05-31T08:31:14Z</time>
      </trkpt>
      <trkpt lat="45.04452" lon="2.64759">
        <ele>1302</ele>
        <time>2014-05-31T08:31:28Z</time>
      </trkpt>
      <trkpt lat="45.04461" lon="2.64759">
        <ele>1301.2</ele>
        <time>2014-05-31T08:31:40Z</time>
      </trkpt>
      <trkpt lat="45.04466" lon="2.6477">
        <ele>1302.8</ele>
        <time>2014-05-31T08:31:49Z</time>
      </trkpt>
      <trkpt lat="45.04474" lon="2.64777">
        <ele>1304.2</ele>
        <time>2014-05-31T08:32:00Z</time>
      </trkpt>
      <trkpt lat="45.04486" lon="2.64796">
        <ele>1306.1</ele>
        <time>2014-05-31T08:32:20Z</time>
      </trkpt>
      <trkpt lat="45.04494" lon="2.64805">
        <ele>1307.8</ele>
        <time>2014-05-31T08:32:31Z</time>
      </trkpt>
      <trkpt lat="45.04501" lon="2.64814">
        <ele>1309.5</ele>
        <time>2014-05-31T08:32:41Z</time>
      </trkpt>
      <trkpt lat="45.0451" lon="2.64818">
        <ele>1311.1</ele>
        <time>2014-05-31T08:32:51Z</time>
      </trkpt>
      <trkpt lat="45.04519" lon="2.6482">
        <ele>1312.2</ele>
        <time>2014-05-31T08:33:04Z</time>
      </trkpt>
      <trkpt lat="45.04534" lon="2.64833">
        <ele>1313.2</ele>
        <time>2014-05-31T08:33:24Z</time>
      </trkpt>
      <trkpt lat="45.04539" lon="2.64845">
        <ele>1313.2</ele>
        <time>2014-05-31T08:33:34Z</time>
      </trkpt>
      <trkpt lat="45.04541" lon="2.64857">
        <ele>1313.5</ele>
        <time>2014-05-31T08:33:43Z</time>
      </trkpt>
      <trkpt lat="45.04547" lon="2.64867">
        <ele>1315.7</ele>
        <time>2014-05-31T08:33:57Z</time>
      </trkpt>
      <trkpt lat="45.04555" lon="2.64874">
        <ele>1317.3</ele>
        <time>2014-05-31T08:34:09Z</time>
      </trkpt>
      <trkpt lat="45.04571" lon="2.64888">
        <ele>1321.9</ele>
        <time>2014-05-31T08:34:33Z</time>
      </trkpt>
      <trkpt lat="45.04579" lon="2.64896">
        <ele>1324.7</ele>
        <time>2014-05-31T08:34:42Z</time>
      </trkpt>
      <trkpt lat="45.04586" lon="2.64904">
        <ele>1325.8</ele>
        <time>2014-05-31T08:34:52Z</time>
      </trkpt>
      <trkpt lat="45.04592" lon="2.64914">
        <ele>1328</ele>
        <time>2014-05-31T08:35:03Z</time>
      </trkpt>
      <trkpt lat="45.04598" lon="2.64926">
        <ele>1329.6</ele>
        <time>2014-05-31T08:35:13Z</time>
      </trkpt>
      <trkpt lat="45.046" lon="2.64952">
        <ele>1330.5</ele>
        <time>2014-05-31T08:35:33Z</time>
      </trkpt>
      <trkpt lat="45.04605" lon="2.64963">
        <ele>1331</ele>
        <time>2014-05-31T08:35:44Z</time>
      </trkpt>
      <trkpt lat="45.04613" lon="2.64971">
        <ele>1330.4</ele>
        <time>2014-05-31T08:36:01Z</time>
      </trkpt>
      <trkpt lat="45.04621" lon="2.64975">
        <ele>1330.7</ele>
        <time>2014-05-31T08:37:09Z</time>
      </trkpt>
      <trkpt lat="45.04634" lon="2.64995">
        <ele>1330.8</ele>
        <time>2014-05-31T08:37:30Z</time>
      </trkpt>
      <trkpt lat="45.0464" lon="2.65004">
        <ele>1331.7</ele>
        <time>2014-05-31T08:37:39Z</time>
      </trkpt>
      <trkpt lat="45.0464" lon="2.65018">
        <ele>1331</ele>
        <time>2014-05-31T08:37:53Z</time>
      </trkpt>
      <trkpt lat="45.04642" lon="2.65031">
        <ele>1330.7</ele>
        <time>2014-05-31T08:38:07Z</time>
      </trkpt>
      <trkpt lat="45.04647" lon="2.65042">
        <ele>1330.8</ele>
        <time>2014-05-31T08:38:18Z</time>
      </trkpt>
      <trkpt lat="45.0466" lon="2.65063">
        <ele>1329.7</ele>
        <time>2014-05-31T08:38:36Z</time>
      </trkpt>
      <trkpt lat="45.04666" lon="2.65074">
        <ele>1330.3</ele>
        <time>2014-05-31T08:38:45Z</time>
      </trkpt>
      <trkpt lat="45.04673" lon="2.65083">
        <ele>1329.6</ele>
        <time>2014-05-31T08:38:51Z</time>
      </trkpt>
      <trkpt lat="45.04678" lon="2.65095">
        <ele>1329.6</ele>
        <time>2014-05-31T08:38:57Z</time>
      </trkpt>
      <trkpt lat="45.04684" lon="2.65105">
        <ele>1329.9</ele>
        <time>2014-05-31T08:39:05Z</time>
      </trkpt>
      <trkpt lat="45.04688" lon="2.65118">
        <ele>1330.2</ele>
        <time>2014-05-31T08:39:12Z</time>
      </trkpt>
      <trkpt lat="45.04691" lon="2.65131">
        <ele>1331.4</ele>
        <time>2014-05-31T08:39:21Z</time>
      </trkpt>
      <trkpt lat="45.047" lon="2.65152">
        <ele>1334.4</ele>
        <time>2014-05-31T08:39:42Z</time>
      </trkpt>
      <trkpt lat="45.0471" lon="2.65155">
        <ele>1335.4</ele>
        <time>2014-05-31T08:40:17Z</time>
      </trkpt>
      <trkpt lat="45.04718" lon="2.6516">
        <ele>1336.5</ele>
        <time>2014-05-31T08:40:27Z</time>
      </trkpt>
      <trkpt lat="45.04732" lon="2.65177">
        <ele>1336.4</ele>
        <time>2014-05-31T08:40:47Z</time>
      </trkpt>
      <trkpt lat="45.04738" lon="2.65187">
        <ele>1336.9</ele>
        <time>2014-05-31T08:41:59Z</time>
      </trkpt>
      <trkpt lat="45.04756" lon="2.65195">
        <ele>1338.4</ele>
        <time>2014-05-31T08:42:34Z</time>
      </trkpt>
      <trkpt lat="45.04764" lon="2.65202">
        <ele>1336.9</ele>
        <time>2014-05-31T08:42:48Z</time>
      </trkpt>
      <trkpt lat="45.0477" lon="2.65211">
        <ele>1336.8</ele>
        <time>2014-05-31T08:44:02Z</time>
      </trkpt>
      <trkpt lat="45.04792" lon="2.65198">
        <ele>1328.9</ele>
        <time>2014-05-31T08:54:16Z</time>
      </trkpt>
      <trkpt lat="45.04799" lon="2.65206">
        <ele>1328</ele>
        <time>2014-05-31T08:54:31Z</time>
      </trkpt>
      <trkpt lat="45.04809" lon="2.65208">
        <ele>1329.7</ele>
        <time>2014-05-31T08:54:44Z</time>
      </trkpt>
      <trkpt lat="45.04819" lon="2.65215">
        <ele>1329.4</ele>
        <time>2014-05-31T08:57:47Z</time>
      </trkpt>
      <trkpt lat="45.04836" lon="2.6522">
        <ele>1332.6</ele>
        <time>2014-05-31T08:58:14Z</time>
      </trkpt>
      <trkpt lat="45.04844" lon="2.65215">
        <ele>1334</ele>
        <time>2014-05-31T08:58:28Z</time>
      </trkpt>
      <trkpt lat="45.04853" lon="2.65216">
        <ele>1335.2</ele>
        <time>2014-05-31T08:58:42Z</time>
      </trkpt>
      <trkpt lat="45.04862" lon="2.65218">
        <ele>1338.8</ele>
        <time>2014-05-31T08:58:57Z</time>
      </trkpt>
      <trkpt lat="45.04881" lon="2.65219">
        <ele>1344</ele>
        <time>2014-05-31T08:59:48Z</time>
      </trkpt>
      <trkpt lat="45.04889" lon="2.65215">
        <ele>1345.2</ele>
        <time>2014-05-31T09:00:02Z</time>
      </trkpt>
      <trkpt lat="45.04907" lon="2.65221">
        <ele>1352.7</ele>
        <time>2014-05-31T09:00:34Z</time>
      </trkpt>
      <trkpt lat="45.04916" lon="2.65228">
        <ele>1356.4</ele>
        <time>2014-05-31T09:00:53Z</time>
      </trkpt>
      <trkpt lat="45.04923" lon="2.65235">
        <ele>1360.8</ele>
        <time>2014-05-31T09:01:12Z</time>
      </trkpt>
      <trkpt lat="45.04933" lon="2.65258">
        <ele>1364.3</ele>
        <time>2014-05-31T09:02:00Z</time>
      </trkpt>
      <trkpt lat="45.04942" lon="2.65258">
        <ele>1367.6</ele>
        <time>2014-05-31T09:02:20Z</time>
      </trkpt>
      <trkpt lat="45.04958" lon="2.6527">
        <ele>1373.1</ele>
        <time>2014-05-31T09:02:52Z</time>
      </trkpt>
      <trkpt lat="45.04967" lon="2.65267">
        <ele>1374.9</ele>
        <time>2014-05-31T09:03:07Z</time>
      </trkpt>
      <trkpt lat="45.04973" lon="2.65257">
        <ele>1377.5</ele>
        <time>2014-05-31T09:03:20Z</time>
      </trkpt>
      <trkpt lat="45.04978" lon="2.65246">
        <ele>1379.7</ele>
        <time>2014-05-31T09:03:35Z</time>
      </trkpt>
      <trkpt lat="45.04996" lon="2.65239">
        <ele>1383.7</ele>
        <time>2014-05-31T09:04:04Z</time>
      </trkpt>
      <trkpt lat="45.05004" lon="2.65247">
        <ele>1386.4</ele>
        <time>2014-05-31T09:04:17Z</time>
      </trkpt>
      <trkpt lat="45.05009" lon="2.65259">
        <ele>1388.2</ele>
        <time>2014-05-31T09:04:31Z</time>
      </trkpt>
      <trkpt lat="45.05009" lon="2.65273">
        <ele>1391.2</ele>
        <time>2014-05-31T09:04:44Z</time>
      </trkpt>
      <trkpt lat="45.05013" lon="2.65299">
        <ele>1396</ele>
        <time>2014-05-31T09:05:13Z</time>
      </trkpt>
      <trkpt lat="45.05015" lon="2.65312">
        <ele>1398.2</ele>
        <time>2014-05-31T09:05:29Z</time>
      </trkpt>
      <trkpt lat="45.05019" lon="2.65324">
        <ele>1400.8</ele>
        <time>2014-05-31T09:05:43Z</time>
      </trkpt>
      <trkpt lat="45.05024" lon="2.65336">
        <ele>1402.4</ele>
        <time>2014-05-31T09:05:56Z</time>
      </trkpt>
      <trkpt lat="45.05038" lon="2.65352">
        <ele>1406.8</ele>
        <time>2014-05-31T09:06:28Z</time>
      </trkpt>
      <trkpt lat="45.05043" lon="2.65363">
        <ele>1410.9</ele>
        <time>2014-05-31T09:06:43Z</time>
      </trkpt>
      <trkpt lat="45.05047" lon="2.65374">
        <ele>1411.9</ele>
        <time>2014-05-31T09:06:57Z</time>
      </trkpt>
      <trkpt lat="45.05061" lon="2.65391">
        <ele>1413.4</ele>
        <time>2014-05-31T09:07:28Z</time>
      </trkpt>
      <trkpt lat="45.05069" lon="2.65398">
        <ele>1412.8</ele>
        <time>2014-05-31T09:07:41Z</time>
      </trkpt>
      <trkpt lat="45.05075" lon="2.65409">
        <ele>1412.1</ele>
        <time>2014-05-31T09:07:54Z</time>
      </trkpt>
      <trkpt lat="45.0508" lon="2.6542">
        <ele>1411.4</ele>
        <time>2014-05-31T09:08:06Z</time>
      </trkpt>
      <trkpt lat="45.05082" lon="2.65446">
        <ele>1413.2</ele>
        <time>2014-05-31T09:08:34Z</time>
      </trkpt>
      <trkpt lat="45.05085" lon="2.65459">
        <ele>1412.9</ele>
        <time>2014-05-31T09:08:42Z</time>
      </trkpt>
      <trkpt lat="45.05086" lon="2.65472">
        <ele>1412.7</ele>
        <time>2014-05-31T09:08:51Z</time>
      </trkpt>
      <trkpt lat="45.05088" lon="2.65485">
        <ele>1413</ele>
        <time>2014-05-31T09:09:21Z</time>
      </trkpt>
      <trkpt lat="45.05094" lon="2.65527">
        <ele>1413.5</ele>
        <time>2014-05-31T09:14:50Z</time>
      </trkpt>
      <trkpt lat="45.05095" lon="2.65551">
        <ele>1414.2</ele>
        <time>2014-05-31T09:15:46Z</time>
      </trkpt>
      <trkpt lat="45.05099" lon="2.65563">
        <ele>1413.9</ele>
        <time>2014-05-31T09:17:19Z</time>
      </trkpt>
      <trkpt lat="45.05098" lon="2.6559">
        <ele>1415</ele>
        <time>2014-05-31T09:17:43Z</time>
      </trkpt>
      <trkpt lat="45.05098" lon="2.65603">
        <ele>1416.2</ele>
        <time>2014-05-31T09:17:53Z</time>
      </trkpt>
      <trkpt lat="45.05097" lon="2.65617">
        <ele>1417.1</ele>
        <time>2014-05-31T09:18:03Z</time>
      </trkpt>
      <trkpt lat="45.05099" lon="2.6563">
        <ele>1418.7</ele>
        <time>2014-05-31T09:18:13Z</time>
      </trkpt>
      <trkpt lat="45.05103" lon="2.65642">
        <ele>1420.9</ele>
        <time>2014-05-31T09:18:26Z</time>
      </trkpt>
      <trkpt lat="45.05107" lon="2.65666">
        <ele>1428.2</ele>
        <time>2014-05-31T09:18:58Z</time>
      </trkpt>
      <trkpt lat="45.05105" lon="2.65679">
        <ele>1431.5</ele>
        <time>2014-05-31T09:19:15Z</time>
      </trkpt>
      <trkpt lat="45.05099" lon="2.65688">
        <ele>1435.6</ele>
        <time>2014-05-31T09:19:41Z</time>
      </trkpt>
      <trkpt lat="45.0511" lon="2.65709">
        <ele>1442.6</ele>
        <time>2014-05-31T09:20:33Z</time>
      </trkpt>
      <trkpt lat="45.05106" lon="2.65721">
        <ele>1446.2</ele>
        <time>2014-05-31T09:20:50Z</time>
      </trkpt>
      <trkpt lat="45.05103" lon="2.65747">
        <ele>1449.4</ele>
        <time>2014-05-31T09:21:15Z</time>
      </trkpt>
      <trkpt lat="45.05099" lon="2.65759">
        <ele>1450.9</ele>
        <time>2014-05-31T09:21:27Z</time>
      </trkpt>
      <trkpt lat="45.05096" lon="2.65772">
        <ele>1451.3</ele>
        <time>2014-05-31T09:21:40Z</time>
      </trkpt>
      <trkpt lat="45.05094" lon="2.65784">
        <ele>1454</ele>
        <time>2014-05-31T09:21:52Z</time>
      </trkpt>
      <trkpt lat="45.05098" lon="2.658">
        <ele>1456.8</ele>
        <time>2014-05-31T09:23:41Z</time>
      </trkpt>
      <trkpt lat="45.05091" lon="2.65825">
        <ele>1461.2</ele>
        <time>2014-05-31T09:24:06Z</time>
      </trkpt>
      <trkpt lat="45.05089" lon="2.65838">
        <ele>1462.2</ele>
        <time>2014-05-31T09:24:16Z</time>
      </trkpt>
      <trkpt lat="45.05086" lon="2.6585">
        <ele>1461.9</ele>
        <time>2014-05-31T09:24:26Z</time>
      </trkpt>
      <trkpt lat="45.05085" lon="2.65863">
        <ele>1463.2</ele>
        <time>2014-05-31T09:24:36Z</time>
      </trkpt>
      <trkpt lat="45.05083" lon="2.65876">
        <ele>1463.9</ele>
        <time>2014-05-31T09:24:48Z</time>
      </trkpt>
      <trkpt lat="45.05072" lon="2.65899">
        <ele>1465.5</ele>
        <time>2014-05-31T09:25:06Z</time>
      </trkpt>
      <trkpt lat="45.05067" lon="2.65911">
        <ele>1466.6</ele>
        <time>2014-05-31T09:25:17Z</time>
      </trkpt>
      <trkpt lat="45.05066" lon="2.65924">
        <ele>1468.7</ele>
        <time>2014-05-31T09:25:30Z</time>
      </trkpt>
      <trkpt lat="45.05061" lon="2.65935">
        <ele>1472.4</ele>
        <time>2014-05-31T09:25:45Z</time>
      </trkpt>
      <trkpt lat="45.05061" lon="2.65948">
        <ele>1476.7</ele>
        <time>2014-05-31T09:26:07Z</time>
      </trkpt>
      <trkpt lat="45.05054" lon="2.65972">
        <ele>1481</ele>
        <time>2014-05-31T09:26:38Z</time>
      </trkpt>
      <trkpt lat="45.05049" lon="2.65983">
        <ele>1484</ele>
        <time>2014-05-31T09:26:54Z</time>
      </trkpt>
      <trkpt lat="45.05045" lon="2.65995">
        <ele>1487.6</ele>
        <time>2014-05-31T09:27:12Z</time>
      </trkpt>
      <trkpt lat="45.05035" lon="2.66016">
        <ele>1493.1</ele>
        <time>2014-05-31T09:27:52Z</time>
      </trkpt>
      <trkpt lat="45.05029" lon="2.66026">
        <ele>1496.2</ele>
        <time>2014-05-31T09:28:06Z</time>
      </trkpt>
      <trkpt lat="45.05024" lon="2.66038">
        <ele>1498.3</ele>
        <time>2014-05-31T09:28:19Z</time>
      </trkpt>
      <trkpt lat="45.05009" lon="2.66052">
        <ele>1503.3</ele>
        <time>2014-05-31T09:28:49Z</time>
      </trkpt>
      <trkpt lat="45.05001" lon="2.66059">
        <ele>1506</ele>
        <time>2014-05-31T09:29:05Z</time>
      </trkpt>
      <trkpt lat="45.04996" lon="2.6607">
        <ele>1509.2</ele>
        <time>2014-05-31T09:29:32Z</time>
      </trkpt>
      <trkpt lat="45.04998" lon="2.66095">
        <ele>1516.1</ele>
        <time>2014-05-31T09:30:04Z</time>
      </trkpt>
      <trkpt lat="45.05006" lon="2.66103">
        <ele>1517.3</ele>
        <time>2014-05-31T09:30:17Z</time>
      </trkpt>
      <trkpt lat="45.05013" lon="2.6611">
        <ele>1519.3</ele>
        <time>2014-05-31T09:30:30Z</time>
      </trkpt>
      <trkpt lat="45.05018" lon="2.66121">
        <ele>1522.1</ele>
        <time>2014-05-31T09:30:44Z</time>
      </trkpt>
      <trkpt lat="45.05032" lon="2.66139">
        <ele>1527.1</ele>
        <time>2014-05-31T09:31:16Z</time>
      </trkpt>
      <trkpt lat="45.05036" lon="2.6615">
        <ele>1531.2</ele>
        <time>2014-05-31T09:31:34Z</time>
      </trkpt>
      <trkpt lat="45.05043" lon="2.66158">
        <ele>1532.4</ele>
        <time>2014-05-31T09:31:50Z</time>
      </trkpt>
      <trkpt lat="45.05054" lon="2.66178">
        <ele>1537.8</ele>
        <time>2014-05-31T09:32:21Z</time>
      </trkpt>
      <trkpt lat="45.05058" lon="2.6619">
        <ele>1541</ele>
        <time>2014-05-31T09:32:45Z</time>
      </trkpt>
      <trkpt lat="45.05058" lon="2.66203">
        <ele>1540.9</ele>
        <time>2014-05-31T09:33:13Z</time>
      </trkpt>
      <trkpt lat="45.05061" lon="2.66229">
        <ele>1539</ele>
        <time>2014-05-31T09:33:34Z</time>
      </trkpt>
      <trkpt lat="45.05064" lon="2.66241">
        <ele>1538.3</ele>
        <time>2014-05-31T09:33:56Z</time>
      </trkpt>
      <trkpt lat="45.05068" lon="2.66254">
        <ele>1538.8</ele>
        <time>2014-05-31T09:34:06Z</time>
      </trkpt>
      <trkpt lat="45.05073" lon="2.66265">
        <ele>1541.7</ele>
        <time>2014-05-31T09:34:17Z</time>
      </trkpt>
      <trkpt lat="45.05076" lon="2.6629">
        <ele>1546.7</ele>
        <time>2014-05-31T09:34:43Z</time>
      </trkpt>
      <trkpt lat="45.05079" lon="2.66303">
        <ele>1547.5</ele>
        <time>2014-05-31T09:34:56Z</time>
      </trkpt>
      <trkpt lat="45.05082" lon="2.66316">
        <ele>1548.5</ele>
        <time>2014-05-31T09:35:08Z</time>
      </trkpt>
      <trkpt lat="45.05086" lon="2.66329">
        <ele>1548.6</ele>
        <time>2014-05-31T09:35:18Z</time>
      </trkpt>
      <trkpt lat="45.05096" lon="2.6635">
        <ele>1548</ele>
        <time>2014-05-31T09:37:07Z</time>
      </trkpt>
      <trkpt lat="45.05098" lon="2.66376">
        <ele>1546.6</ele>
        <time>2014-05-31T09:37:26Z</time>
      </trkpt>
      <trkpt lat="45.05099" lon="2.6639">
        <ele>1545.3</ele>
        <time>2014-05-31T09:37:56Z</time>
      </trkpt>
      <trkpt lat="45.05099" lon="2.66403">
        <ele>1545</ele>
        <time>2014-05-31T09:38:05Z</time>
      </trkpt>
      <trkpt lat="45.05102" lon="2.66415">
        <ele>1544</ele>
        <time>2014-05-31T09:38:15Z</time>
      </trkpt>
      <trkpt lat="45.05111" lon="2.66439">
        <ele>1540</ele>
        <time>2014-05-31T09:38:33Z</time>
      </trkpt>
      <trkpt lat="45.05116" lon="2.6645">
        <ele>1540.6</ele>
        <time>2014-05-31T09:38:42Z</time>
      </trkpt>
      <trkpt lat="45.05124" lon="2.66457">
        <ele>1541.1</ele>
        <time>2014-05-31T09:38:52Z</time>
      </trkpt>
      <trkpt lat="45.05133" lon="2.66463">
        <ele>1539.4</ele>
        <time>2014-05-31T09:39:01Z</time>
      </trkpt>
      <trkpt lat="45.0514" lon="2.66473">
        <ele>1541.7</ele>
        <time>2014-05-31T09:39:11Z</time>
      </trkpt>
      <trkpt lat="45.05145" lon="2.66483">
        <ele>1542.6</ele>
        <time>2014-05-31T09:39:25Z</time>
      </trkpt>
      <trkpt lat="45.05158" lon="2.66502">
        <ele>1550</ele>
        <time>2014-05-31T09:40:03Z</time>
      </trkpt>
      <trkpt lat="45.05166" lon="2.66508">
        <ele>1549.2</ele>
        <time>2014-05-31T09:42:46Z</time>
      </trkpt>
      <trkpt lat="45.05145" lon="2.66485">
        <ele>1538.6</ele>
        <time>2014-05-31T09:47:22Z</time>
      </trkpt>
      <trkpt lat="45.05139" lon="2.66475">
        <ele>1533.4</ele>
        <time>2014-05-31T09:47:42Z</time>
      </trkpt>
      <trkpt lat="45.05122" lon="2.66462">
        <ele>1532.3</ele>
        <time>2014-05-31T09:48:01Z</time>
      </trkpt>
      <trkpt lat="45.05114" lon="2.6647">
        <ele>1530.7</ele>
        <time>2014-05-31T09:48:15Z</time>
      </trkpt>
      <trkpt lat="45.05107" lon="2.66478">
        <ele>1528.2</ele>
        <time>2014-05-31T09:48:34Z</time>
      </trkpt>
      <trkpt lat="45.05098" lon="2.66478">
        <ele>1524.4</ele>
        <time>2014-05-31T09:48:49Z</time>
      </trkpt>
      <trkpt lat="45.0508" lon="2.66481">
        <ele>1519.1</ele>
        <time>2014-05-31T09:49:24Z</time>
      </trkpt>
      <trkpt lat="45.05071" lon="2.66487">
        <ele>1515.1</ele>
        <time>2014-05-31T09:49:46Z</time>
      </trkpt>
      <trkpt lat="45.05063" lon="2.66492">
        <ele>1512.1</ele>
        <time>2014-05-31T09:50:01Z</time>
      </trkpt>
      <trkpt lat="45.05051" lon="2.66513">
        <ele>1504.6</ele>
        <time>2014-05-31T09:50:29Z</time>
      </trkpt>
      <trkpt lat="45.05043" lon="2.6652">
        <ele>1502.2</ele>
        <time>2014-05-31T09:50:42Z</time>
      </trkpt>
      <trkpt lat="45.05034" lon="2.6652">
        <ele>1499.6</ele>
        <time>2014-05-31T09:50:56Z</time>
      </trkpt>
      <trkpt lat="45.05032" lon="2.66532">
        <ele>1497.1</ele>
        <time>2014-05-31T09:51:10Z</time>
      </trkpt>
      <trkpt lat="45.05021" lon="2.66553">
        <ele>1490.9</ele>
        <time>2014-05-31T09:51:35Z</time>
      </trkpt>
      <trkpt lat="45.05012" lon="2.66558">
        <ele>1489.3</ele>
        <time>2014-05-31T09:51:47Z</time>
      </trkpt>
      <trkpt lat="45.05003" lon="2.66562">
        <ele>1487.2</ele>
        <time>2014-05-31T09:51:56Z</time>
      </trkpt>
      <trkpt lat="45.04997" lon="2.66572">
        <ele>1485.5</ele>
        <time>2014-05-31T09:52:10Z</time>
      </trkpt>
      <trkpt lat="45.04988" lon="2.66578">
        <ele>1481.5</ele>
        <time>2014-05-31T09:52:23Z</time>
      </trkpt>
      <trkpt lat="45.04974" lon="2.66595">
        <ele>1477.2</ele>
        <time>2014-05-31T09:52:49Z</time>
      </trkpt>
      <trkpt lat="45.04968" lon="2.66605">
        <ele>1475.7</ele>
        <time>2014-05-31T09:52:58Z</time>
      </trkpt>
      <trkpt lat="45.04961" lon="2.66615">
        <ele>1474.2</ele>
        <time>2014-05-31T09:53:09Z</time>
      </trkpt>
      <trkpt lat="45.04953" lon="2.66623">
        <ele>1469.9</ele>
        <time>2014-05-31T09:53:19Z</time>
      </trkpt>
      <trkpt lat="45.04947" lon="2.66632">
        <ele>1469.5</ele>
        <time>2014-05-31T09:53:29Z</time>
      </trkpt>
      <trkpt lat="45.04933" lon="2.6665">
        <ele>1464.7</ele>
        <time>2014-05-31T09:53:46Z</time>
      </trkpt>
      <trkpt lat="45.04923" lon="2.66654">
        <ele>1464.9</ele>
        <time>2014-05-31T09:53:54Z</time>
      </trkpt>
      <trkpt lat="45.04913" lon="2.66654">
        <ele>1463.6</ele>
        <time>2014-05-31T09:54:02Z</time>
      </trkpt>
      <trkpt lat="45.04904" lon="2.66651">
        <ele>1463.3</ele>
        <time>2014-05-31T09:54:11Z</time>
      </trkpt>
      <trkpt lat="45.04894" lon="2.66651">
        <ele>1459.6</ele>
        <time>2014-05-31T09:54:22Z</time>
      </trkpt>
      <trkpt lat="45.0489" lon="2.66664">
        <ele>1461.2</ele>
        <time>2014-05-31T09:54:32Z</time>
      </trkpt>
      <trkpt lat="45.0488" lon="2.66686">
        <ele>1466.2</ele>
        <time>2014-05-31T09:54:53Z</time>
      </trkpt>
      <trkpt lat="45.04873" lon="2.66695">
        <ele>1467.5</ele>
        <time>2014-05-31T09:55:03Z</time>
      </trkpt>
      <trkpt lat="45.04865" lon="2.66701">
        <ele>1467.1</ele>
        <time>2014-05-31T09:55:13Z</time>
      </trkpt>
      <trkpt lat="45.04856" lon="2.66705">
        <ele>1464.7</ele>
        <time>2014-05-31T09:55:21Z</time>
      </trkpt>
      <trkpt lat="45.04847" lon="2.66708">
        <ele>1465.1</ele>
        <time>2014-05-31T09:55:29Z</time>
      </trkpt>
      <trkpt lat="45.04837" lon="2.66711">
        <ele>1466.6</ele>
        <time>2014-05-31T09:55:39Z</time>
      </trkpt>
      <trkpt lat="45.04818" lon="2.66719">
        <ele>1466.2</ele>
        <time>2014-05-31T09:55:59Z</time>
      </trkpt>
      <trkpt lat="45.0481" lon="2.66723">
        <ele>1467.2</ele>
        <time>2014-05-31T09:56:07Z</time>
      </trkpt>
      <trkpt lat="45.04802" lon="2.66732">
        <ele>1466.5</ele>
        <time>2014-05-31T09:56:16Z</time>
      </trkpt>
      <trkpt lat="45.04794" lon="2.66741">
        <ele>1467.2</ele>
        <time>2014-05-31T09:56:25Z</time>
      </trkpt>
      <trkpt lat="45.04786" lon="2.66748">
        <ele>1467.2</ele>
        <time>2014-05-31T09:56:34Z</time>
      </trkpt>
      <trkpt lat="45.04778" lon="2.66753">
        <ele>1469</ele>
        <time>2014-05-31T09:56:45Z</time>
      </trkpt>
      <trkpt lat="45.04762" lon="2.66768">
        <ele>1474.7</ele>
        <time>2014-05-31T09:57:09Z</time>
      </trkpt>
      <trkpt lat="45.04754" lon="2.66773">
        <ele>1475.1</ele>
        <time>2014-05-31T09:57:21Z</time>
      </trkpt>
      <trkpt lat="45.04744" lon="2.66772">
        <ele>1478</ele>
        <time>2014-05-31T09:57:33Z</time>
      </trkpt>
      <trkpt lat="45.04735" lon="2.66774">
        <ele>1480</ele>
        <time>2014-05-31T09:57:45Z</time>
      </trkpt>
      <trkpt lat="45.04727" lon="2.6678">
        <ele>1481</ele>
        <time>2014-05-31T09:57:57Z</time>
      </trkpt>
      <trkpt lat="45.04712" lon="2.66796">
        <ele>1483.8</ele>
        <time>2014-05-31T09:58:24Z</time>
      </trkpt>
      <trkpt lat="45.04703" lon="2.668">
        <ele>1486.2</ele>
        <time>2014-05-31T09:58:35Z</time>
      </trkpt>
      <trkpt lat="45.04694" lon="2.668">
        <ele>1487.1</ele>
        <time>2014-05-31T09:58:45Z</time>
      </trkpt>
      <trkpt lat="45.04684" lon="2.66802">
        <ele>1488.4</ele>
        <time>2014-05-31T09:58:56Z</time>
      </trkpt>
      <trkpt lat="45.04675" lon="2.66806">
        <ele>1491.4</ele>
        <time>2014-05-31T09:59:09Z</time>
      </trkpt>
      <trkpt lat="45.04657" lon="2.66809">
        <ele>1494.2</ele>
        <time>2014-05-31T09:59:33Z</time>
      </trkpt>
      <trkpt lat="45.04647" lon="2.66813">
        <ele>1496.1</ele>
        <time>2014-05-31T09:59:46Z</time>
      </trkpt>
      <trkpt lat="45.04643" lon="2.66824">
        <ele>1498.4</ele>
        <time>2014-05-31T10:00:05Z</time>
      </trkpt>
      <trkpt lat="45.04641" lon="2.66838">
        <ele>1500.9</ele>
        <time>2014-05-31T10:00:21Z</time>
      </trkpt>
      <trkpt lat="45.04625" lon="2.66852">
        <ele>1499.1</ele>
        <time>2014-05-31T10:00:47Z</time>
      </trkpt>
      <trkpt lat="45.04617" lon="2.66859">
        <ele>1499.6</ele>
        <time>2014-05-31T10:00:58Z</time>
      </trkpt>
      <trkpt lat="45.04607" lon="2.66857">
        <ele>1497.8</ele>
        <time>2014-05-31T10:01:07Z</time>
      </trkpt>
      <trkpt lat="45.04598" lon="2.66853">
        <ele>1497.4</ele>
        <time>2014-05-31T10:01:17Z</time>
      </trkpt>
      <trkpt lat="45.04589" lon="2.66853">
        <ele>1496.1</ele>
        <time>2014-05-31T10:01:28Z</time>
      </trkpt>
      <trkpt lat="45.04571" lon="2.66842">
        <ele>1494.2</ele>
        <time>2014-05-31T10:01:50Z</time>
      </trkpt>
      <trkpt lat="45.04563" lon="2.66835">
        <ele>1495.2</ele>
        <time>2014-05-31T10:02:05Z</time>
      </trkpt>
      <trkpt lat="45.04554" lon="2.6683">
        <ele>1498.9</ele>
        <time>2014-05-31T10:02:20Z</time>
      </trkpt>
      <trkpt lat="45.04545" lon="2.66829">
        <ele>1500.6</ele>
        <time>2014-05-31T10:02:35Z</time>
      </trkpt>
      <trkpt lat="45.04527" lon="2.66827">
        <ele>1507.3</ele>
        <time>2014-05-31T10:03:13Z</time>
      </trkpt>
      <trkpt lat="45.04518" lon="2.66831">
        <ele>1509.4</ele>
        <time>2014-05-31T10:03:34Z</time>
      </trkpt>
      <trkpt lat="45.04509" lon="2.66834">
        <ele>1509.5</ele>
        <time>2014-05-31T10:03:59Z</time>
      </trkpt>
      <trkpt lat="45.0449" lon="2.66836">
        <ele>1505.2</ele>
        <time>2014-05-31T10:04:28Z</time>
      </trkpt>
      <trkpt lat="45.04481" lon="2.66837">
        <ele>1503.1</ele>
        <time>2014-05-31T10:04:41Z</time>
      </trkpt>
      <trkpt lat="45.04472" lon="2.66837">
        <ele>1503.7</ele>
        <time>2014-05-31T10:04:51Z</time>
      </trkpt>
      <trkpt lat="45.04463" lon="2.66837">
        <ele>1504.5</ele>
        <time>2014-05-31T10:05:03Z</time>
      </trkpt>
      <trkpt lat="45.04445" lon="2.66834">
        <ele>1501.8</ele>
        <time>2014-05-31T10:05:32Z</time>
      </trkpt>
      <trkpt lat="45.04436" lon="2.66829">
        <ele>1501.7</ele>
        <time>2014-05-31T10:05:49Z</time>
      </trkpt>
      <trkpt lat="45.04433" lon="2.66817">
        <ele>1501.7</ele>
        <time>2014-05-31T10:06:49Z</time>
      </trkpt>
      <trkpt lat="45.04406" lon="2.66809">
        <ele>1497.5</ele>
        <time>2014-05-31T10:10:22Z</time>
      </trkpt>
      <trkpt lat="45.04396" lon="2.66807">
        <ele>1495.9</ele>
        <time>2014-05-31T10:10:31Z</time>
      </trkpt>
      <trkpt lat="45.04389" lon="2.66799">
        <ele>1491.3</ele>
        <time>2014-05-31T10:10:44Z</time>
      </trkpt>
      <trkpt lat="45.04384" lon="2.66788">
        <ele>1487.8</ele>
        <time>2014-05-31T10:10:58Z</time>
      </trkpt>
      <trkpt lat="45.04382" lon="2.66774">
        <ele>1482.8</ele>
        <time>2014-05-31T10:11:11Z</time>
      </trkpt>
      <trkpt lat="45.04385" lon="2.66748">
        <ele>1473.3</ele>
        <time>2014-05-31T10:11:48Z</time>
      </trkpt>
      <trkpt lat="45.04376" lon="2.66748">
        <ele>1472.1</ele>
        <time>2014-05-31T10:12:58Z</time>
      </trkpt>
      <trkpt lat="45.04357" lon="2.66755">
        <ele>1473.8</ele>
        <time>2014-05-31T10:13:16Z</time>
      </trkpt>
      <trkpt lat="45.04347" lon="2.66757">
        <ele>1472.9</ele>
        <time>2014-05-31T10:13:25Z</time>
      </trkpt>
      <trkpt lat="45.04338" lon="2.66761">
        <ele>1472.8</ele>
        <time>2014-05-31T10:13:44Z</time>
      </trkpt>
      <trkpt lat="45.04329" lon="2.66761">
        <ele>1472.9</ele>
        <time>2014-05-31T10:13:52Z</time>
      </trkpt>
      <trkpt lat="45.04319" lon="2.66762">
        <ele>1472.2</ele>
        <time>2014-05-31T10:14:00Z</time>
      </trkpt>
      <trkpt lat="45.04301" lon="2.6677">
        <ele>1471.1</ele>
        <time>2014-05-31T10:14:15Z</time>
      </trkpt>
      <trkpt lat="45.04294" lon="2.66777">
        <ele>1470.4</ele>
        <time>2014-05-31T10:14:22Z</time>
      </trkpt>
      <trkpt lat="45.04285" lon="2.66783">
        <ele>1469.7</ele>
        <time>2014-05-31T10:14:30Z</time>
      </trkpt>
      <trkpt lat="45.04277" lon="2.66789">
        <ele>1469.3</ele>
        <time>2014-05-31T10:14:38Z</time>
      </trkpt>
      <trkpt lat="45.04268" lon="2.66795">
        <ele>1468.7</ele>
        <time>2014-05-31T10:14:46Z</time>
      </trkpt>
      <trkpt lat="45.0426" lon="2.66799">
        <ele>1469.8</ele>
        <time>2014-05-31T10:14:53Z</time>
      </trkpt>
      <trkpt lat="45.0425" lon="2.66803">
        <ele>1467.9</ele>
        <time>2014-05-31T10:15:01Z</time>
      </trkpt>
      <trkpt lat="45.04231" lon="2.66806">
        <ele>1466.3</ele>
        <time>2014-05-31T10:15:17Z</time>
      </trkpt>
      <trkpt lat="45.04222" lon="2.66808">
        <ele>1465.4</ele>
        <time>2014-05-31T10:15:24Z</time>
      </trkpt>
      <trkpt lat="45.04212" lon="2.66811">
        <ele>1464.8</ele>
        <time>2014-05-31T10:15:32Z</time>
      </trkpt>
      <trkpt lat="45.04203" lon="2.66815">
        <ele>1464.5</ele>
        <time>2014-05-31T10:15:40Z</time>
      </trkpt>
      <trkpt lat="45.04194" lon="2.66819">
        <ele>1463.2</ele>
        <time>2014-05-31T10:15:47Z</time>
      </trkpt>
      <trkpt lat="45.04184" lon="2.66824">
        <ele>1462.9</ele>
        <time>2014-05-31T10:15:55Z</time>
      </trkpt>
      <trkpt lat="45.04175" lon="2.6683">
        <ele>1463.4</ele>
        <time>2014-05-31T10:16:03Z</time>
      </trkpt>
      <trkpt lat="45.04159" lon="2.66846">
        <ele>1463.7</ele>
        <time>2014-05-31T10:16:19Z</time>
      </trkpt>
      <trkpt lat="45.04151" lon="2.66852">
        <ele>1463.2</ele>
        <time>2014-05-31T10:16:27Z</time>
      </trkpt>
      <trkpt lat="45.04142" lon="2.66858">
        <ele>1462.9</ele>
        <time>2014-05-31T10:16:35Z</time>
      </trkpt>
      <trkpt lat="45.04133" lon="2.66863">
        <ele>1463.6</ele>
        <time>2014-05-31T10:16:43Z</time>
      </trkpt>
      <trkpt lat="45.04125" lon="2.66868">
        <ele>1463.8</ele>
        <time>2014-05-31T10:16:51Z</time>
      </trkpt>
      <trkpt lat="45.04115" lon="2.66872">
        <ele>1464</ele>
        <time>2014-05-31T10:16:59Z</time>
      </trkpt>
      <trkpt lat="45.04106" lon="2.66876">
        <ele>1463.1</ele>
        <time>2014-05-31T10:17:07Z</time>
      </trkpt>
      <trkpt lat="45.04089" lon="2.66887">
        <ele>1464.3</ele>
        <time>2014-05-31T10:17:22Z</time>
      </trkpt>
      <trkpt lat="45.0408" lon="2.66893">
        <ele>1465</ele>
        <time>2014-05-31T10:17:30Z</time>
      </trkpt>
      <trkpt lat="45.04071" lon="2.66899">
        <ele>1464.4</ele>
        <time>2014-05-31T10:17:38Z</time>
      </trkpt>
      <trkpt lat="45.04061" lon="2.66901">
        <ele>1464.3</ele>
        <time>2014-05-31T10:17:46Z</time>
      </trkpt>
      <trkpt lat="45.04051" lon="2.66903">
        <ele>1462.2</ele>
        <time>2014-05-31T10:17:55Z</time>
      </trkpt>
      <trkpt lat="45.04041" lon="2.66905">
        <ele>1462.4</ele>
        <time>2014-05-31T10:18:04Z</time>
      </trkpt>
      <trkpt lat="45.04031" lon="2.66905">
        <ele>1462.5</ele>
        <time>2014-05-31T10:18:13Z</time>
      </trkpt>
      <trkpt lat="45.04012" lon="2.66901">
        <ele>1460.6</ele>
        <time>2014-05-31T10:18:30Z</time>
      </trkpt>
      <trkpt lat="45.04003" lon="2.669">
        <ele>1459.1</ele>
        <time>2014-05-31T10:18:38Z</time>
      </trkpt>
      <trkpt lat="45.03993" lon="2.669">
        <ele>1458.5</ele>
        <time>2014-05-31T10:18:46Z</time>
      </trkpt>
      <trkpt lat="45.03984" lon="2.669">
        <ele>1457.9</ele>
        <time>2014-05-31T10:18:54Z</time>
      </trkpt>
      <trkpt lat="45.03974" lon="2.669">
        <ele>1456.1</ele>
        <time>2014-05-31T10:19:02Z</time>
      </trkpt>
      <trkpt lat="45.03966" lon="2.66897">
        <ele>1456.5</ele>
        <time>2014-05-31T10:19:10Z</time>
      </trkpt>
      <trkpt lat="45.03957" lon="2.66892">
        <ele>1454.9</ele>
        <time>2014-05-31T10:19:19Z</time>
      </trkpt>
      <trkpt lat="45.03942" lon="2.6686">
        <ele>1457</ele>
        <time>2014-05-31T10:27:42Z</time>
      </trkpt>
      <trkpt lat="45.03932" lon="2.66839">
        <ele>1453.4</ele>
        <time>2014-05-31T10:28:01Z</time>
      </trkpt>
      <trkpt lat="45.03925" lon="2.66829">
        <ele>1452.6</ele>
        <time>2014-05-31T10:28:10Z</time>
      </trkpt>
      <trkpt lat="45.0392" lon="2.66818">
        <ele>1449.2</ele>
        <time>2014-05-31T10:28:20Z</time>
      </trkpt>
      <trkpt lat="45.03916" lon="2.66806">
        <ele>1448.3</ele>
        <time>2014-05-31T10:28:30Z</time>
      </trkpt>
      <trkpt lat="45.03911" lon="2.66796">
        <ele>1447.9</ele>
        <time>2014-05-31T10:29:00Z</time>
      </trkpt>
      <trkpt lat="45.03901" lon="2.66773">
        <ele>1443</ele>
        <time>2014-05-31T10:29:26Z</time>
      </trkpt>
      <trkpt lat="45.03898" lon="2.66761">
        <ele>1440.9</ele>
        <time>2014-05-31T10:29:36Z</time>
      </trkpt>
      <trkpt lat="45.03893" lon="2.66748">
        <ele>1438.7</ele>
        <time>2014-05-31T10:29:47Z</time>
      </trkpt>
      <trkpt lat="45.03889" lon="2.66736">
        <ele>1435.4</ele>
        <time>2014-05-31T10:29:58Z</time>
      </trkpt>
      <trkpt lat="45.03884" lon="2.66725">
        <ele>1432.1</ele>
        <time>2014-05-31T10:30:08Z</time>
      </trkpt>
      <trkpt lat="45.03873" lon="2.66703">
        <ele>1428.9</ele>
        <time>2014-05-31T10:30:27Z</time>
      </trkpt>
      <trkpt lat="45.03868" lon="2.66692">
        <ele>1426.8</ele>
        <time>2014-05-31T10:30:36Z</time>
      </trkpt>
      <trkpt lat="45.03862" lon="2.66681">
        <ele>1423.4</ele>
        <time>2014-05-31T10:30:47Z</time>
      </trkpt>
      <trkpt lat="45.03857" lon="2.66669">
        <ele>1420.2</ele>
        <time>2014-05-31T10:31:00Z</time>
      </trkpt>
      <trkpt lat="45.0385" lon="2.6666">
        <ele>1417.9</ele>
        <time>2014-05-31T10:31:11Z</time>
      </trkpt>
      <trkpt lat="45.03833" lon="2.66647">
        <ele>1413.8</ele>
        <time>2014-05-31T10:31:30Z</time>
      </trkpt>
      <trkpt lat="45.03825" lon="2.66641">
        <ele>1411.5</ele>
        <time>2014-05-31T10:31:39Z</time>
      </trkpt>
      <trkpt lat="45.03816" lon="2.66636">
        <ele>1409.9</ele>
        <time>2014-05-31T10:31:48Z</time>
      </trkpt>
      <trkpt lat="45.03807" lon="2.66629">
        <ele>1407.1</ele>
        <time>2014-05-31T10:32:01Z</time>
      </trkpt>
      <trkpt lat="45.038" lon="2.66621">
        <ele>1404.8</ele>
        <time>2014-05-31T10:32:12Z</time>
      </trkpt>
      <trkpt lat="45.03785" lon="2.66605">
        <ele>1401.1</ele>
        <time>2014-05-31T10:32:32Z</time>
      </trkpt>
      <trkpt lat="45.03776" lon="2.66598">
        <ele>1397.7</ele>
        <time>2014-05-31T10:32:43Z</time>
      </trkpt>
      <trkpt lat="45.03768" lon="2.66593">
        <ele>1396.5</ele>
        <time>2014-05-31T10:32:52Z</time>
      </trkpt>
      <trkpt lat="45.0376" lon="2.66586">
        <ele>1394.2</ele>
        <time>2014-05-31T10:33:02Z</time>
      </trkpt>
      <trkpt lat="45.0375" lon="2.66582">
        <ele>1393.9</ele>
        <time>2014-05-31T10:33:11Z</time>
      </trkpt>
      <trkpt lat="45.03742" lon="2.66577">
        <ele>1394.3</ele>
        <time>2014-05-31T10:33:19Z</time>
      </trkpt>
      <trkpt lat="45.03725" lon="2.66562">
        <ele>1391.1</ele>
        <time>2014-05-31T10:33:37Z</time>
      </trkpt>
      <trkpt lat="45.03718" lon="2.66553">
        <ele>1390.1</ele>
        <time>2014-05-31T10:33:46Z</time>
      </trkpt>
      <trkpt lat="45.03711" lon="2.66544">
        <ele>1389.3</ele>
        <time>2014-05-31T10:33:54Z</time>
      </trkpt>
      <trkpt lat="45.03703" lon="2.66535">
        <ele>1389.5</ele>
        <time>2014-05-31T10:34:02Z</time>
      </trkpt>
      <trkpt lat="45.03696" lon="2.66526">
        <ele>1386.8</ele>
        <time>2014-05-31T10:34:10Z</time>
      </trkpt>
      <trkpt lat="45.0369" lon="2.66516">
        <ele>1385.3</ele>
        <time>2014-05-31T10:34:18Z</time>
      </trkpt>
      <trkpt lat="45.03684" lon="2.66506">
        <ele>1383.2</ele>
        <time>2014-05-31T10:34:26Z</time>
      </trkpt>
      <trkpt lat="45.03669" lon="2.66488">
        <ele>1382.1</ele>
        <time>2014-05-31T10:34:42Z</time>
      </trkpt>
      <trkpt lat="45.0366" lon="2.6648">
        <ele>1381</ele>
        <time>2014-05-31T10:34:50Z</time>
      </trkpt>
      <trkpt lat="45.03653" lon="2.66473">
        <ele>1380.3</ele>
        <time>2014-05-31T10:34:57Z</time>
      </trkpt>
      <trkpt lat="45.03645" lon="2.66464">
        <ele>1380.4</ele>
        <time>2014-05-31T10:35:05Z</time>
      </trkpt>
      <trkpt lat="45.03637" lon="2.66456">
        <ele>1380.1</ele>
        <time>2014-05-31T10:35:12Z</time>
      </trkpt>
      <trkpt lat="45.0363" lon="2.66448">
        <ele>1379.7</ele>
        <time>2014-05-31T10:35:19Z</time>
      </trkpt>
      <trkpt lat="45.03623" lon="2.6644">
        <ele>1378.4</ele>
        <time>2014-05-31T10:35:26Z</time>
      </trkpt>
      <trkpt lat="45.03616" lon="2.6643">
        <ele>1377.1</ele>
        <time>2014-05-31T10:35:34Z</time>
      </trkpt>
      <trkpt lat="45.03601" lon="2.66414">
        <ele>1374.9</ele>
        <time>2014-05-31T10:35:50Z</time>
      </trkpt>
      <trkpt lat="45.03594" lon="2.66404">
        <ele>1374.2</ele>
        <time>2014-05-31T10:35:59Z</time>
      </trkpt>
      <trkpt lat="45.03587" lon="2.66394">
        <ele>1373.6</ele>
        <time>2014-05-31T10:36:12Z</time>
      </trkpt>
      <trkpt lat="45.03581" lon="2.66385">
        <ele>1370.1</ele>
        <time>2014-05-31T10:36:26Z</time>
      </trkpt>
      <trkpt lat="45.03574" lon="2.66376">
        <ele>1366.5</ele>
        <time>2014-05-31T10:36:40Z</time>
      </trkpt>
      <trkpt lat="45.03569" lon="2.66351">
        <ele>1362.1</ele>
        <time>2014-05-31T10:37:59Z</time>
      </trkpt>
      <trkpt lat="45.03552" lon="2.66338">
        <ele>1359.1</ele>
        <time>2014-05-31T10:38:20Z</time>
      </trkpt>
      <trkpt lat="45.03544" lon="2.66329">
        <ele>1357.5</ele>
        <time>2014-05-31T10:38:38Z</time>
      </trkpt>
      <trkpt lat="45.03536" lon="2.66321">
        <ele>1356.5</ele>
        <time>2014-05-31T10:38:50Z</time>
      </trkpt>
      <trkpt lat="45.03534" lon="2.66309">
        <ele>1354</ele>
        <time>2014-05-31T10:39:04Z</time>
      </trkpt>
      <trkpt lat="45.0353" lon="2.66283">
        <ele>1349.4</ele>
        <time>2014-05-31T10:39:27Z</time>
      </trkpt>
      <trkpt lat="45.03525" lon="2.66272">
        <ele>1346.7</ele>
        <time>2014-05-31T10:39:43Z</time>
      </trkpt>
      <trkpt lat="45.03518" lon="2.66263">
        <ele>1345.2</ele>
        <time>2014-05-31T10:39:55Z</time>
      </trkpt>
      <trkpt lat="45.03515" lon="2.6625">
        <ele>1343.5</ele>
        <time>2014-05-31T10:40:07Z</time>
      </trkpt>
      <trkpt lat="45.03509" lon="2.66228">
        <ele>1337.1</ele>
        <time>2014-05-31T10:40:35Z</time>
      </trkpt>
      <trkpt lat="45.03501" lon="2.66222">
        <ele>1336.5</ele>
        <time>2014-05-31T10:40:44Z</time>
      </trkpt>
      <trkpt lat="45.03493" lon="2.66217">
        <ele>1337.4</ele>
        <time>2014-05-31T10:40:53Z</time>
      </trkpt>
      <trkpt lat="45.03484" lon="2.66213">
        <ele>1337.5</ele>
        <time>2014-05-31T10:41:04Z</time>
      </trkpt>
      <trkpt lat="45.03475" lon="2.66207">
        <ele>1337.2</ele>
        <time>2014-05-31T10:41:33Z</time>
      </trkpt>
      <trkpt lat="45.03459" lon="2.66194">
        <ele>1337.3</ele>
        <time>2014-05-31T10:41:51Z</time>
      </trkpt>
      <trkpt lat="45.0345" lon="2.66189">
        <ele>1336.7</ele>
        <time>2014-05-31T10:41:59Z</time>
      </trkpt>
      <trkpt lat="45.03441" lon="2.66184">
        <ele>1336.4</ele>
        <time>2014-05-31T10:42:08Z</time>
      </trkpt>
      <trkpt lat="45.03431" lon="2.6618">
        <ele>1337.3</ele>
        <time>2014-05-31T10:44:09Z</time>
      </trkpt>
      <trkpt lat="45.03417" lon="2.66161">
        <ele>1337.7</ele>
        <time>2014-05-31T10:44:25Z</time>
      </trkpt>
      <trkpt lat="45.03409" lon="2.66152">
        <ele>1338.1</ele>
        <time>2014-05-31T10:44:33Z</time>
      </trkpt>
      <trkpt lat="45.03402" lon="2.66143">
        <ele>1338.5</ele>
        <time>2014-05-31T10:44:41Z</time>
      </trkpt>
      <trkpt lat="45.03395" lon="2.66133">
        <ele>1337.8</ele>
        <time>2014-05-31T10:44:52Z</time>
      </trkpt>
      <trkpt lat="45.03389" lon="2.66123">
        <ele>1337.2</ele>
        <time>2014-05-31T10:45:00Z</time>
      </trkpt>
      <trkpt lat="45.03384" lon="2.66112">
        <ele>1336.7</ele>
        <time>2014-05-31T10:45:08Z</time>
      </trkpt>
      <trkpt lat="45.03377" lon="2.661">
        <ele>1335.7</ele>
        <time>2014-05-31T10:45:16Z</time>
      </trkpt>
      <trkpt lat="45.03364" lon="2.66082">
        <ele>1336.1</ele>
        <time>2014-05-31T10:46:37Z</time>
      </trkpt>
      <trkpt lat="45.0335" lon="2.66065">
        <ele>1335.9</ele>
        <time>2014-05-31T10:46:54Z</time>
      </trkpt>
      <trkpt lat="45.03341" lon="2.66059">
        <ele>1334.7</ele>
        <time>2014-05-31T10:47:02Z</time>
      </trkpt>
      <trkpt lat="45.03332" lon="2.66053">
        <ele>1334.2</ele>
        <time>2014-05-31T10:47:11Z</time>
      </trkpt>
      <trkpt lat="45.03323" lon="2.6605">
        <ele>1332.9</ele>
        <time>2014-05-31T10:47:19Z</time>
      </trkpt>
      <trkpt lat="45.03314" lon="2.66051">
        <ele>1333.7</ele>
        <time>2014-05-31T10:47:27Z</time>
      </trkpt>
      <trkpt lat="45.03305" lon="2.66055">
        <ele>1332.8</ele>
        <time>2014-05-31T10:47:35Z</time>
      </trkpt>
      <trkpt lat="45.03296" lon="2.6606">
        <ele>1331.7</ele>
        <time>2014-05-31T10:47:43Z</time>
      </trkpt>
      <trkpt lat="45.03278" lon="2.66067">
        <ele>1328.8</ele>
        <time>2014-05-31T10:47:59Z</time>
      </trkpt>
      <trkpt lat="45.03268" lon="2.66068">
        <ele>1328</ele>
        <time>2014-05-31T10:48:08Z</time>
      </trkpt>
      <trkpt lat="45.03259" lon="2.66068">
        <ele>1326.2</ele>
        <time>2014-05-31T10:48:16Z</time>
      </trkpt>
      <trkpt lat="45.03249" lon="2.66069">
        <ele>1324.1</ele>
        <time>2014-05-31T10:48:24Z</time>
      </trkpt>
      <trkpt lat="45.03239" lon="2.66069">
        <ele>1321.9</ele>
        <time>2014-05-31T10:48:33Z</time>
      </trkpt>
      <trkpt lat="45.0323" lon="2.66067">
        <ele>1319.9</ele>
        <time>2014-05-31T10:48:42Z</time>
      </trkpt>
      <trkpt lat="45.03221" lon="2.66063">
        <ele>1319.4</ele>
        <time>2014-05-31T10:48:50Z</time>
      </trkpt>
      <trkpt lat="45.03204" lon="2.66054">
        <ele>1314.7</ele>
        <time>2014-05-31T10:49:06Z</time>
      </trkpt>
      <trkpt lat="45.03197" lon="2.66045">
        <ele>1312.8</ele>
        <time>2014-05-31T10:49:14Z</time>
      </trkpt>
      <trkpt lat="45.03191" lon="2.66034">
        <ele>1311.9</ele>
        <time>2014-05-31T10:49:22Z</time>
      </trkpt>
      <trkpt lat="45.03186" lon="2.66022">
        <ele>1311.7</ele>
        <time>2014-05-31T10:49:32Z</time>
      </trkpt>
      <trkpt lat="45.03184" lon="2.66008">
        <ele>1309.8</ele>
        <time>2014-05-31T10:49:47Z</time>
      </trkpt>
      <trkpt lat="45.03177" lon="2.65999">
        <ele>1308.3</ele>
        <time>2014-05-31T10:49:56Z</time>
      </trkpt>
      <trkpt lat="45.0316" lon="2.65989">
        <ele>1306.4</ele>
        <time>2014-05-31T10:50:12Z</time>
      </trkpt>
      <trkpt lat="45.03156" lon="2.65976">
        <ele>1305.1</ele>
        <time>2014-05-31T10:50:21Z</time>
      </trkpt>
      <trkpt lat="45.03151" lon="2.65964">
        <ele>1304.6</ele>
        <time>2014-05-31T10:50:31Z</time>
      </trkpt>
      <trkpt lat="45.03144" lon="2.65954">
        <ele>1303.9</ele>
        <time>2014-05-31T10:50:39Z</time>
      </trkpt>
      <trkpt lat="45.03141" lon="2.65942">
        <ele>1302.4</ele>
        <time>2014-05-31T10:50:47Z</time>
      </trkpt>
      <trkpt lat="45.03135" lon="2.65931">
        <ele>1302.2</ele>
        <time>2014-05-31T10:50:55Z</time>
      </trkpt>
      <trkpt lat="45.03129" lon="2.65919">
        <ele>1301.4</ele>
        <time>2014-05-31T10:51:03Z</time>
      </trkpt>
      <trkpt lat="45.03115" lon="2.65902">
        <ele>1299.1</ele>
        <time>2014-05-31T10:51:17Z</time>
      </trkpt>
      <trkpt lat="45.03107" lon="2.65895">
        <ele>1298.8</ele>
        <time>2014-05-31T10:51:24Z</time>
      </trkpt>
      <trkpt lat="45.03099" lon="2.65887">
        <ele>1297.3</ele>
        <time>2014-05-31T10:51:32Z</time>
      </trkpt>
      <trkpt lat="45.03092" lon="2.65879">
        <ele>1296.7</ele>
        <time>2014-05-31T10:51:39Z</time>
      </trkpt>
      <trkpt lat="45.03084" lon="2.6587">
        <ele>1295.3</ele>
        <time>2014-05-31T10:51:47Z</time>
      </trkpt>
      <trkpt lat="45.03077" lon="2.65861">
        <ele>1295.2</ele>
        <time>2014-05-31T10:51:55Z</time>
      </trkpt>
      <trkpt lat="45.0307" lon="2.65852">
        <ele>1294.8</ele>
        <time>2014-05-31T10:52:02Z</time>
      </trkpt>
      <trkpt lat="45.03062" lon="2.65844">
        <ele>1294</ele>
        <time>2014-05-31T10:52:10Z</time>
      </trkpt>
      <trkpt lat="45.03045" lon="2.65831">
        <ele>1292.6</ele>
        <time>2014-05-31T10:52:26Z</time>
      </trkpt>
      <trkpt lat="45.03036" lon="2.65825">
        <ele>1292.5</ele>
        <time>2014-05-31T10:52:34Z</time>
      </trkpt>
      <trkpt lat="45.03027" lon="2.65818">
        <ele>1291.3</ele>
        <time>2014-05-31T10:52:42Z</time>
      </trkpt>
      <trkpt lat="45.03019" lon="2.65811">
        <ele>1289.7</ele>
        <time>2014-05-31T10:52:50Z</time>
      </trkpt>
      <trkpt lat="45.03012" lon="2.65803">
        <ele>1289.5</ele>
        <time>2014-05-31T10:52:58Z</time>
      </trkpt>
      <trkpt lat="45.03004" lon="2.65796">
        <ele>1288</ele>
        <time>2014-05-31T10:53:06Z</time>
      </trkpt>
      <trkpt lat="45.02997" lon="2.65787">
        <ele>1287.6</ele>
        <time>2014-05-31T10:53:14Z</time>
      </trkpt>
      <trkpt lat="45.02982" lon="2.6577">
        <ele>1284.3</ele>
        <time>2014-05-31T10:53:33Z</time>
      </trkpt>
      <trkpt lat="45.02972" lon="2.65766">
        <ele>1282.9</ele>
        <time>2014-05-31T10:53:42Z</time>
      </trkpt>
      <trkpt lat="45.02963" lon="2.65762">
        <ele>1278.6</ele>
        <time>2014-05-31T10:53:53Z</time>
      </trkpt>
      <trkpt lat="45.02955" lon="2.65758">
        <ele>1274.4</ele>
        <time>2014-05-31T10:54:04Z</time>
      </trkpt>
      <trkpt lat="45.02946" lon="2.65753">
        <ele>1273.4</ele>
        <time>2014-05-31T10:54:14Z</time>
      </trkpt>
      <trkpt lat="45.02938" lon="2.65748">
        <ele>1270.2</ele>
        <time>2014-05-31T10:54:24Z</time>
      </trkpt>
      <trkpt lat="45.02921" lon="2.65735">
        <ele>1263.8</ele>
        <time>2014-05-31T10:54:45Z</time>
      </trkpt>
      <trkpt lat="45.02915" lon="2.65724">
        <ele>1262</ele>
        <time>2014-05-31T10:54:55Z</time>
      </trkpt>
      <trkpt lat="45.02909" lon="2.65713">
        <ele>1258.7</ele>
        <time>2014-05-31T10:55:05Z</time>
      </trkpt>
      <trkpt lat="45.02903" lon="2.65702">
        <ele>1256.9</ele>
        <time>2014-05-31T10:55:15Z</time>
      </trkpt>
      <trkpt lat="45.02899" lon="2.6569">
        <ele>1255.3</ele>
        <time>2014-05-31T10:55:27Z</time>
      </trkpt>
      <trkpt lat="45.02882" lon="2.65679">
        <ele>1249.4</ele>
        <time>2014-05-31T10:55:47Z</time>
      </trkpt>
      <trkpt lat="45.02873" lon="2.65683">
        <ele>1246.4</ele>
        <time>2014-05-31T10:55:57Z</time>
      </trkpt>
      <trkpt lat="45.02863" lon="2.65684">
        <ele>1243.3</ele>
        <time>2014-05-31T10:56:07Z</time>
      </trkpt>
      <trkpt lat="45.02854" lon="2.65684">
        <ele>1241.6</ele>
        <time>2014-05-31T10:56:19Z</time>
      </trkpt>
      <trkpt lat="45.02846" lon="2.65678">
        <ele>1240.3</ele>
        <time>2014-05-31T10:56:29Z</time>
      </trkpt>
      <trkpt lat="45.0283" lon="2.65663">
        <ele>1235.1</ele>
        <time>2014-05-31T10:56:48Z</time>
      </trkpt>
      <trkpt lat="45.02822" lon="2.65655">
        <ele>1233.4</ele>
        <time>2014-05-31T10:56:58Z</time>
      </trkpt>
      <trkpt lat="45.02814" lon="2.65648">
        <ele>1231</ele>
        <time>2014-05-31T10:57:07Z</time>
      </trkpt>
      <trkpt lat="45.02807" lon="2.65639">
        <ele>1229.1</ele>
        <time>2014-05-31T10:57:15Z</time>
      </trkpt>
      <trkpt lat="45.02798" lon="2.65635">
        <ele>1227.3</ele>
        <time>2014-05-31T10:57:25Z</time>
      </trkpt>
      <trkpt lat="45.0279" lon="2.65628">
        <ele>1225.6</ele>
        <time>2014-05-31T10:57:33Z</time>
      </trkpt>
      <trkpt lat="45.02773" lon="2.65616">
        <ele>1222.5</ele>
        <time>2014-05-31T10:57:50Z</time>
      </trkpt>
      <trkpt lat="45.02765" lon="2.6561">
        <ele>1221.1</ele>
        <time>2014-05-31T10:57:58Z</time>
      </trkpt>
      <trkpt lat="45.02756" lon="2.65605">
        <ele>1219.1</ele>
        <time>2014-05-31T10:58:07Z</time>
      </trkpt>
      <trkpt lat="45.02747" lon="2.656">
        <ele>1215.1</ele>
        <time>2014-05-31T10:58:20Z</time>
      </trkpt>
      <trkpt lat="45.02738" lon="2.65598">
        <ele>1214.4</ele>
        <time>2014-05-31T10:58:54Z</time>
      </trkpt>
      <trkpt lat="45.0272" lon="2.65598">
        <ele>1210.7</ele>
        <time>2014-05-31T10:59:12Z</time>
      </trkpt>
      <trkpt lat="45.0271" lon="2.65598">
        <ele>1209</ele>
        <time>2014-05-31T10:59:20Z</time>
      </trkpt>
      <trkpt lat="45.02701" lon="2.656">
        <ele>1207</ele>
        <time>2014-05-31T10:59:29Z</time>
      </trkpt>
      <trkpt lat="45.02692" lon="2.65604">
        <ele>1204.7</ele>
        <time>2014-05-31T10:59:40Z</time>
      </trkpt>
      <trkpt lat="45.02683" lon="2.65608">
        <ele>1202.2</ele>
        <time>2014-05-31T10:59:52Z</time>
      </trkpt>
      <trkpt lat="45.02688" lon="2.65598">
        <ele>1202.7</ele>
        <time>2014-05-31T11:00:56Z</time>
      </trkpt>
      <trkpt lat="45.02673" lon="2.65586">
        <ele>1198.3</ele>
        <time>2014-05-31T11:01:51Z</time>
      </trkpt>
      <trkpt lat="45.02667" lon="2.65576">
        <ele>1193.8</ele>
        <time>2014-05-31T11:02:10Z</time>
      </trkpt>
      <trkpt lat="45.02667" lon="2.65549">
        <ele>1191.8</ele>
        <time>2014-05-31T11:02:30Z</time>
      </trkpt>
      <trkpt lat="45.02667" lon="2.65536">
        <ele>1190.7</ele>
        <time>2014-05-31T11:02:39Z</time>
      </trkpt>
      <trkpt lat="45.02666" lon="2.65522">
        <ele>1187.9</ele>
        <time>2014-05-31T11:02:49Z</time>
      </trkpt>
      <trkpt lat="45.02664" lon="2.65509">
        <ele>1186</ele>
        <time>2014-05-31T11:02:58Z</time>
      </trkpt>
      <trkpt lat="45.02662" lon="2.65496">
        <ele>1183.7</ele>
        <time>2014-05-31T11:03:07Z</time>
      </trkpt>
      <trkpt lat="45.02658" lon="2.65483">
        <ele>1183.4</ele>
        <time>2014-05-31T11:03:16Z</time>
      </trkpt>
      <trkpt lat="45.02646" lon="2.65464">
        <ele>1179</ele>
        <time>2014-05-31T11:03:36Z</time>
      </trkpt>
      <trkpt lat="45.0264" lon="2.65453">
        <ele>1175.6</ele>
        <time>2014-05-31T11:03:47Z</time>
      </trkpt>
      <trkpt lat="45.02639" lon="2.65439">
        <ele>1174.9</ele>
        <time>2014-05-31T11:03:58Z</time>
      </trkpt>
      <trkpt lat="45.02637" lon="2.65426">
        <ele>1173.3</ele>
        <time>2014-05-31T11:04:22Z</time>
      </trkpt>
      <trkpt lat="45.02633" lon="2.65399">
        <ele>1170.7</ele>
        <time>2014-05-31T11:04:40Z</time>
      </trkpt>
      <trkpt lat="45.02631" lon="2.65387">
        <ele>1170.7</ele>
        <time>2014-05-31T11:04:48Z</time>
      </trkpt>
      <trkpt lat="45.02627" lon="2.65375">
        <ele>1170</ele>
        <time>2014-05-31T11:04:57Z</time>
      </trkpt>
      <trkpt lat="45.02622" lon="2.65364">
        <ele>1169.8</ele>
        <time>2014-05-31T11:05:05Z</time>
      </trkpt>
      <trkpt lat="45.02619" lon="2.65352">
        <ele>1170</ele>
        <time>2014-05-31T11:05:15Z</time>
      </trkpt>
      <trkpt lat="45.02618" lon="2.65339">
        <ele>1169.2</ele>
        <time>2014-05-31T11:05:35Z</time>
      </trkpt>
      <trkpt lat="45.02611" lon="2.65294">
        <ele>1182.2</ele>
        <time>2014-05-31T11:57:08Z</time>
      </trkpt>
      <trkpt lat="45.02612" lon="2.65282">
        <ele>1180</ele>
        <time>2014-05-31T11:57:19Z</time>
      </trkpt>
      <trkpt lat="45.02614" lon="2.65269">
        <ele>1179.6</ele>
        <time>2014-05-31T11:57:30Z</time>
      </trkpt>
      <trkpt lat="45.02616" lon="2.65256">
        <ele>1176.4</ele>
        <time>2014-05-31T11:57:42Z</time>
      </trkpt>
      <trkpt lat="45.02621" lon="2.65245">
        <ele>1176.1</ele>
        <time>2014-05-31T11:58:00Z</time>
      </trkpt>
      <trkpt lat="45.02629" lon="2.6522">
        <ele>1173.5</ele>
        <time>2014-05-31T11:58:18Z</time>
      </trkpt>
      <trkpt lat="45.02631" lon="2.65207">
        <ele>1171.1</ele>
        <time>2014-05-31T11:58:26Z</time>
      </trkpt>
      <trkpt lat="45.02633" lon="2.65194">
        <ele>1168.6</ele>
        <time>2014-05-31T11:58:35Z</time>
      </trkpt>
      <trkpt lat="45.02632" lon="2.6518">
        <ele>1167</ele>
        <time>2014-05-31T11:58:43Z</time>
      </trkpt>
      <trkpt lat="45.02629" lon="2.65167">
        <ele>1165.6</ele>
        <time>2014-05-31T11:58:50Z</time>
      </trkpt>
      <trkpt lat="45.02626" lon="2.65155">
        <ele>1164.6</ele>
        <time>2014-05-31T11:59:00Z</time>
      </trkpt>
      <trkpt lat="45.02624" lon="2.65142">
        <ele>1163.3</ele>
        <time>2014-05-31T11:59:09Z</time>
      </trkpt>
      <trkpt lat="45.02614" lon="2.6512">
        <ele>1161.1</ele>
        <time>2014-05-31T11:59:25Z</time>
      </trkpt>
      <trkpt lat="45.02611" lon="2.65106">
        <ele>1158.4</ele>
        <time>2014-05-31T11:59:32Z</time>
      </trkpt>
      <trkpt lat="45.02608" lon="2.65094">
        <ele>1157.6</ele>
        <time>2014-05-31T11:59:39Z</time>
      </trkpt>
      <trkpt lat="45.02606" lon="2.65081">
        <ele>1153.8</ele>
        <time>2014-05-31T11:59:48Z</time>
      </trkpt>
      <trkpt lat="45.02603" lon="2.65069">
        <ele>1151.4</ele>
        <time>2014-05-31T11:59:59Z</time>
      </trkpt>
      <trkpt lat="45.02602" lon="2.65055">
        <ele>1149.2</ele>
        <time>2014-05-31T12:00:10Z</time>
      </trkpt>
      <trkpt lat="45.02605" lon="2.65029">
        <ele>1147.3</ele>
        <time>2014-05-31T12:00:29Z</time>
      </trkpt>
      <trkpt lat="45.02604" lon="2.65015">
        <ele>1145.3</ele>
        <time>2014-05-31T12:00:39Z</time>
      </trkpt>
      <trkpt lat="45.02601" lon="2.65003">
        <ele>1141.5</ele>
        <time>2014-05-31T12:00:51Z</time>
      </trkpt>
      <trkpt lat="45.02603" lon="2.6499">
        <ele>1139.4</ele>
        <time>2014-05-31T12:01:01Z</time>
      </trkpt>
      <trkpt lat="45.02602" lon="2.64977">
        <ele>1137.7</ele>
        <time>2014-05-31T12:01:08Z</time>
      </trkpt>
      <trkpt lat="45.02601" lon="2.64963">
        <ele>1136</ele>
        <time>2014-05-31T12:01:18Z</time>
      </trkpt>
      <trkpt lat="45.02599" lon="2.64936">
        <ele>1135.1</ele>
        <time>2014-05-31T12:01:34Z</time>
      </trkpt>
      <trkpt lat="45.02597" lon="2.64923">
        <ele>1133.9</ele>
        <time>2014-05-31T12:01:42Z</time>
      </trkpt>
      <trkpt lat="45.02594" lon="2.6491">
        <ele>1132.7</ele>
        <time>2014-05-31T12:01:51Z</time>
      </trkpt>
      <trkpt lat="45.0259" lon="2.64899">
        <ele>1132.6</ele>
        <time>2014-05-31T12:02:00Z</time>
      </trkpt>
      <trkpt lat="45.02587" lon="2.64886">
        <ele>1129.7</ele>
        <time>2014-05-31T12:02:09Z</time>
      </trkpt>
      <trkpt lat="45.02585" lon="2.64873">
        <ele>1129.2</ele>
        <time>2014-05-31T12:02:20Z</time>
      </trkpt>
      <trkpt lat="45.0258" lon="2.6485">
        <ele>1125.7</ele>
        <time>2014-05-31T12:08:16Z</time>
      </trkpt>
      <trkpt lat="45.02569" lon="2.64828">
        <ele>1121.4</ele>
        <time>2014-05-31T12:08:54Z</time>
      </trkpt>
      <trkpt lat="45.02562" lon="2.6482">
        <ele>1119.5</ele>
        <time>2014-05-31T12:09:11Z</time>
      </trkpt>
      <trkpt lat="45.02553" lon="2.64813">
        <ele>1117</ele>
        <time>2014-05-31T12:09:24Z</time>
      </trkpt>
      <trkpt lat="45.02537" lon="2.64798">
        <ele>1114.1</ele>
        <time>2014-05-31T12:09:44Z</time>
      </trkpt>
      <trkpt lat="45.02529" lon="2.64789">
        <ele>1112.3</ele>
        <time>2014-05-31T12:09:52Z</time>
      </trkpt>
      <trkpt lat="45.02521" lon="2.64779">
        <ele>1111.7</ele>
        <time>2014-05-31T12:10:00Z</time>
      </trkpt>
      <trkpt lat="45.02513" lon="2.64772">
        <ele>1111</ele>
        <time>2014-05-31T12:10:08Z</time>
      </trkpt>
      <trkpt lat="45.02505" lon="2.64766">
        <ele>1111.4</ele>
        <time>2014-05-31T12:10:18Z</time>
      </trkpt>
      <trkpt lat="45.02497" lon="2.64759">
        <ele>1108.1</ele>
        <time>2014-05-31T12:10:31Z</time>
      </trkpt>
      <trkpt lat="45.0248" lon="2.64753">
        <ele>1104.1</ele>
        <time>2014-05-31T12:10:58Z</time>
      </trkpt>
      <trkpt lat="45.02471" lon="2.64748">
        <ele>1102.5</ele>
        <time>2014-05-31T12:11:15Z</time>
      </trkpt>
      <trkpt lat="45.02463" lon="2.64739">
        <ele>1101.5</ele>
        <time>2014-05-31T12:11:29Z</time>
      </trkpt>
      <trkpt lat="45.02455" lon="2.64733">
        <ele>1101.5</ele>
        <time>2014-05-31T12:11:39Z</time>
      </trkpt>
      <trkpt lat="45.02438" lon="2.64726">
        <ele>1098.4</ele>
        <time>2014-05-31T12:12:02Z</time>
      </trkpt>
      <trkpt lat="45.02428" lon="2.64724">
        <ele>1097.9</ele>
        <time>2014-05-31T12:12:13Z</time>
      </trkpt>
      <trkpt lat="45.02418" lon="2.64721">
        <ele>1098</ele>
        <time>2014-05-31T12:12:23Z</time>
      </trkpt>
      <trkpt lat="45.02412" lon="2.64711">
        <ele>1096.2</ele>
        <time>2014-05-31T12:12:32Z</time>
      </trkpt>
      <trkpt lat="45.02406" lon="2.647">
        <ele>1093.6</ele>
        <time>2014-05-31T12:12:42Z</time>
      </trkpt>
      <trkpt lat="45.0241" lon="2.64677">
        <ele>1088.4</ele>
        <time>2014-05-31T12:13:03Z</time>
      </trkpt>
      <trkpt lat="45.02418" lon="2.64671">
        <ele>1087.8</ele>
        <time>2014-05-31T12:13:16Z</time>
      </trkpt>
      <trkpt lat="45.02427" lon="2.6467">
        <ele>1084.4</ele>
        <time>2014-05-31T12:13:36Z</time>
      </trkpt>
      <trkpt lat="45.02435" lon="2.64666">
        <ele>1081.7</ele>
        <time>2014-05-31T12:13:54Z</time>
      </trkpt>
      <trkpt lat="45.02454" lon="2.64661">
        <ele>1081.2</ele>
        <time>2014-05-31T12:14:14Z</time>
      </trkpt>
      <trkpt lat="45.02462" lon="2.64666">
        <ele>1080.2</ele>
        <time>2014-05-31T12:14:26Z</time>
      </trkpt>
      <trkpt lat="45.02471" lon="2.64669">
        <ele>1081.5</ele>
        <time>2014-05-31T12:14:39Z</time>
      </trkpt>
      <trkpt lat="45.02481" lon="2.64671">
        <ele>1080.3</ele>
        <time>2014-05-31T12:14:49Z</time>
      </trkpt>
      <trkpt lat="45.02491" lon="2.64673">
        <ele>1081.2</ele>
        <time>2014-05-31T12:14:57Z</time>
      </trkpt>
      <trkpt lat="45.02509" lon="2.6468">
        <ele>1079.9</ele>
        <time>2014-05-31T12:15:13Z</time>
      </trkpt>
      <trkpt lat="45.02519" lon="2.64684">
        <ele>1079.9</ele>
        <time>2014-05-31T12:15:22Z</time>
      </trkpt>
      <trkpt lat="45.02528" lon="2.64685">
        <ele>1079.9</ele>
        <time>2014-05-31T12:15:31Z</time>
      </trkpt>
      <trkpt lat="45.02538" lon="2.64687">
        <ele>1080</ele>
        <time>2014-05-31T12:15:40Z</time>
      </trkpt>
      <trkpt lat="45.02548" lon="2.6469">
        <ele>1079.1</ele>
        <time>2014-05-31T12:15:52Z</time>
      </trkpt>
      <trkpt lat="45.02558" lon="2.64692">
        <ele>1076.2</ele>
        <time>2014-05-31T12:16:02Z</time>
      </trkpt>
      <trkpt lat="45.02576" lon="2.64697">
        <ele>1075.5</ele>
        <time>2014-05-31T12:16:22Z</time>
      </trkpt>
      <trkpt lat="45.02585" lon="2.647">
        <ele>1074.9</ele>
        <time>2014-05-31T12:16:31Z</time>
      </trkpt>
      <trkpt lat="45.02595" lon="2.64702">
        <ele>1074.2</ele>
        <time>2014-05-31T12:16:39Z</time>
      </trkpt>
      <trkpt lat="45.02604" lon="2.64701">
        <ele>1075</ele>
        <time>2014-05-31T12:16:48Z</time>
      </trkpt>
      <trkpt lat="45.02612" lon="2.64708">
        <ele>1072.6</ele>
        <time>2014-05-31T12:17:00Z</time>
      </trkpt>
      <trkpt lat="45.02621" lon="2.64713">
        <ele>1071.3</ele>
        <time>2014-05-31T12:17:15Z</time>
      </trkpt>
      <trkpt lat="45.02638" lon="2.64722">
        <ele>1067.8</ele>
        <time>2014-05-31T12:17:40Z</time>
      </trkpt>
      <trkpt lat="45.02648" lon="2.64724">
        <ele>1066.9</ele>
        <time>2014-05-31T12:17:49Z</time>
      </trkpt>
      <trkpt lat="45.02657" lon="2.64727">
        <ele>1066.3</ele>
        <time>2014-05-31T12:17:58Z</time>
      </trkpt>
      <trkpt lat="45.02666" lon="2.64731">
        <ele>1064.1</ele>
        <time>2014-05-31T12:18:06Z</time>
      </trkpt>
      <trkpt lat="45.02675" lon="2.64737">
        <ele>1063.9</ele>
        <time>2014-05-31T12:18:15Z</time>
      </trkpt>
      <trkpt lat="45.02684" lon="2.64744">
        <ele>1062.7</ele>
        <time>2014-05-31T12:18:23Z</time>
      </trkpt>
      <trkpt lat="45.027" lon="2.64758">
        <ele>1062</ele>
        <time>2014-05-31T12:18:42Z</time>
      </trkpt>
      <trkpt lat="45.02708" lon="2.64764">
        <ele>1061.2</ele>
        <time>2014-05-31T12:18:51Z</time>
      </trkpt>
      <trkpt lat="45.02717" lon="2.6477">
        <ele>1060.3</ele>
        <time>2014-05-31T12:19:03Z</time>
      </trkpt>
      <trkpt lat="45.02725" lon="2.64777">
        <ele>1059.6</ele>
        <time>2014-05-31T12:19:13Z</time>
      </trkpt>
      <trkpt lat="45.02732" lon="2.64785">
        <ele>1058.7</ele>
        <time>2014-05-31T12:19:25Z</time>
      </trkpt>
      <trkpt lat="45.02749" lon="2.64795">
        <ele>1055</ele>
        <time>2014-05-31T12:20:12Z</time>
      </trkpt>
      <trkpt lat="45.02758" lon="2.64789">
        <ele>1054</ele>
        <time>2014-05-31T12:23:50Z</time>
      </trkpt>
      <trkpt lat="45.02773" lon="2.64803">
        <ele>1052.6</ele>
        <time>2014-05-31T12:24:11Z</time>
      </trkpt>
      <trkpt lat="45.02781" lon="2.64811">
        <ele>1052.1</ele>
        <time>2014-05-31T12:24:20Z</time>
      </trkpt>
      <trkpt lat="45.02788" lon="2.64819">
        <ele>1051.7</ele>
        <time>2014-05-31T12:24:30Z</time>
      </trkpt>
      <trkpt lat="45.02797" lon="2.64823">
        <ele>1050.6</ele>
        <time>2014-05-31T12:24:40Z</time>
      </trkpt>
      <trkpt lat="45.02807" lon="2.64825">
        <ele>1050.5</ele>
        <time>2014-05-31T12:24:50Z</time>
      </trkpt>
      <trkpt lat="45.02816" lon="2.6483">
        <ele>1047.7</ele>
        <time>2014-05-31T12:25:02Z</time>
      </trkpt>
      <trkpt lat="45.02835" lon="2.64836">
        <ele>1045.5</ele>
        <time>2014-05-31T12:25:24Z</time>
      </trkpt>
      <trkpt lat="45.02843" lon="2.64842">
        <ele>1046.8</ele>
        <time>2014-05-31T12:25:43Z</time>
      </trkpt>
      <trkpt lat="45.0285" lon="2.64851">
        <ele>1047.1</ele>
        <time>2014-05-31T12:25:58Z</time>
      </trkpt>
      <trkpt lat="45.02855" lon="2.64862">
        <ele>1046.6</ele>
        <time>2014-05-31T12:26:12Z</time>
      </trkpt>
      <trkpt lat="45.02865" lon="2.6488">
        <ele>1046.6</ele>
        <time>2014-05-31T12:26:51Z</time>
      </trkpt>
      <trkpt lat="45.02874" lon="2.64879">
        <ele>1047.4</ele>
        <time>2014-05-31T12:27:05Z</time>
      </trkpt>
      <trkpt lat="45.02884" lon="2.64883">
        <ele>1050.9</ele>
        <time>2014-05-31T12:27:25Z</time>
      </trkpt>
      <trkpt lat="45.029" lon="2.64892">
        <ele>1055.8</ele>
        <time>2014-05-31T12:28:00Z</time>
      </trkpt>
      <trkpt lat="45.02909" lon="2.64898">
        <ele>1055.6</ele>
        <time>2014-05-31T12:28:13Z</time>
      </trkpt>
      <trkpt lat="45.02918" lon="2.649">
        <ele>1056.4</ele>
        <time>2014-05-31T12:28:25Z</time>
      </trkpt>
      <trkpt lat="45.02927" lon="2.64899">
        <ele>1055.1</ele>
        <time>2014-05-31T12:28:38Z</time>
      </trkpt>
      <trkpt lat="45.02946" lon="2.64902">
        <ele>1053.8</ele>
        <time>2014-05-31T12:29:03Z</time>
      </trkpt>
      <trkpt lat="45.02954" lon="2.64908">
        <ele>1054.4</ele>
        <time>2014-05-31T12:29:19Z</time>
      </trkpt>
      <trkpt lat="45.02963" lon="2.64912">
        <ele>1055.2</ele>
        <time>2014-05-31T12:29:39Z</time>
      </trkpt>
      <trkpt lat="45.0298" lon="2.64923">
        <ele>1058.5</ele>
        <time>2014-05-31T12:30:05Z</time>
      </trkpt>
      <trkpt lat="45.02989" lon="2.64924">
        <ele>1060.1</ele>
        <time>2014-05-31T12:30:21Z</time>
      </trkpt>
      <trkpt lat="45.02996" lon="2.64932">
        <ele>1060.9</ele>
        <time>2014-05-31T12:30:31Z</time>
      </trkpt>
      <trkpt lat="45.03004" lon="2.6494">
        <ele>1061.4</ele>
        <time>2014-05-31T12:30:42Z</time>
      </trkpt>
      <trkpt lat="45.03019" lon="2.64955">
        <ele>1063.7</ele>
        <time>2014-05-31T12:31:01Z</time>
      </trkpt>
      <trkpt lat="45.03026" lon="2.64963">
        <ele>1063</ele>
        <time>2014-05-31T12:31:08Z</time>
      </trkpt>
      <trkpt lat="45.03033" lon="2.64971">
        <ele>1063.5</ele>
        <time>2014-05-31T12:31:17Z</time>
      </trkpt>
      <trkpt lat="45.03042" lon="2.64978">
        <ele>1064.4</ele>
        <time>2014-05-31T12:31:26Z</time>
      </trkpt>
      <trkpt lat="45.03051" lon="2.64981">
        <ele>1065.3</ele>
        <time>2014-05-31T12:31:34Z</time>
      </trkpt>
      <trkpt lat="45.0306" lon="2.64984">
        <ele>1064.9</ele>
        <time>2014-05-31T12:31:42Z</time>
      </trkpt>
      <trkpt lat="45.0307" lon="2.64982">
        <ele>1067.5</ele>
        <time>2014-05-31T12:31:51Z</time>
      </trkpt>
      <trkpt lat="45.03088" lon="2.64983">
        <ele>1069.1</ele>
        <time>2014-05-31T12:32:12Z</time>
      </trkpt>
      <trkpt lat="45.03096" lon="2.64991">
        <ele>1069.1</ele>
        <time>2014-05-31T12:32:20Z</time>
      </trkpt>
      <trkpt lat="45.03103" lon="2.64999">
        <ele>1069.7</ele>
        <time>2014-05-31T12:32:29Z</time>
      </trkpt>
      <trkpt lat="45.03112" lon="2.65006">
        <ele>1069.7</ele>
        <time>2014-05-31T12:32:38Z</time>
      </trkpt>
      <trkpt lat="45.03119" lon="2.65013">
        <ele>1071.2</ele>
        <time>2014-05-31T12:32:48Z</time>
      </trkpt>
      <trkpt lat="45.03128" lon="2.65015">
        <ele>1072.8</ele>
        <time>2014-05-31T12:33:00Z</time>
      </trkpt>
      <trkpt lat="45.03146" lon="2.65018">
        <ele>1074.7</ele>
        <time>2014-05-31T12:33:22Z</time>
      </trkpt>
      <trkpt lat="45.03155" lon="2.65017">
        <ele>1075.6</ele>
        <time>2014-05-31T12:33:31Z</time>
      </trkpt>
      <trkpt lat="45.03165" lon="2.65019">
        <ele>1076.8</ele>
        <time>2014-05-31T12:33:42Z</time>
      </trkpt>
      <trkpt lat="45.03174" lon="2.65021">
        <ele>1077.1</ele>
        <time>2014-05-31T12:33:57Z</time>
      </trkpt>
      <trkpt lat="45.03181" lon="2.65031">
        <ele>1078</ele>
        <time>2014-05-31T12:34:08Z</time>
      </trkpt>
      <trkpt lat="45.03192" lon="2.65053">
        <ele>1078.8</ele>
        <time>2014-05-31T12:34:29Z</time>
      </trkpt>
      <trkpt lat="45.032" lon="2.65061">
        <ele>1078.7</ele>
        <time>2014-05-31T12:34:44Z</time>
      </trkpt>
      <trkpt lat="45.03208" lon="2.65068">
        <ele>1080.5</ele>
        <time>2014-05-31T12:34:57Z</time>
      </trkpt>
      <trkpt lat="45.03218" lon="2.65067">
        <ele>1081.4</ele>
        <time>2014-05-31T12:35:14Z</time>
      </trkpt>
      <trkpt lat="45.03234" lon="2.65057">
        <ele>1081.8</ele>
        <time>2014-05-31T12:35:43Z</time>
      </trkpt>
      <trkpt lat="45.03243" lon="2.65057">
        <ele>1081.3</ele>
        <time>2014-05-31T12:36:05Z</time>
      </trkpt>
      <trkpt lat="45.03252" lon="2.65054">
        <ele>1084.2</ele>
        <time>2014-05-31T12:36:45Z</time>
      </trkpt>
      <trkpt lat="45.03268" lon="2.65063">
        <ele>1092.5</ele>
        <time>2014-05-31T12:37:30Z</time>
      </trkpt>
      <trkpt lat="45.03261" lon="2.65056">
        <ele>1086.1</ele>
        <time>2014-05-31T12:38:38Z</time>
      </trkpt>
      <trkpt lat="45.03254" lon="2.65041">
        <ele>1082.7</ele>
        <time>2014-05-31T12:39:16Z</time>
      </trkpt>
      <trkpt lat="45.03262" lon="2.65032">
        <ele>1080.8</ele>
        <time>2014-05-31T12:39:34Z</time>
      </trkpt>
      <trkpt lat="45.03267" lon="2.65022">
        <ele>1078.1</ele>
        <time>2014-05-31T12:40:01Z</time>
      </trkpt>
      <trkpt lat="45.03251" lon="2.65026">
        <ele>1076.7</ele>
        <time>2014-05-31T12:40:58Z</time>
      </trkpt>
      <trkpt lat="45.03247" lon="2.65038">
        <ele>1076.1</ele>
        <time>2014-05-31T12:41:13Z</time>
      </trkpt>
      <trkpt lat="45.03229" lon="2.65033">
        <ele>1075</ele>
        <time>2014-05-31T12:41:29Z</time>
      </trkpt>
      <trkpt lat="45.03224" lon="2.65023">
        <ele>1072.6</ele>
        <time>2014-05-31T12:41:46Z</time>
      </trkpt>
      <trkpt lat="45.03216" lon="2.65016">
        <ele>1067.1</ele>
        <time>2014-05-31T12:42:41Z</time>
      </trkpt>
      <trkpt lat="45.03206" lon="2.64993">
        <ele>1066.2</ele>
        <time>2014-05-31T12:43:02Z</time>
      </trkpt>
      <trkpt lat="45.03207" lon="2.64981">
        <ele>1062.3</ele>
        <time>2014-05-31T12:43:23Z</time>
      </trkpt>
      <trkpt lat="45.0321" lon="2.64969">
        <ele>1056.2</ele>
        <time>2014-05-31T12:43:42Z</time>
      </trkpt>
      <trkpt lat="45.03211" lon="2.64943">
        <ele>1052.6</ele>
        <time>2014-05-31T12:44:07Z</time>
      </trkpt>
      <trkpt lat="45.03207" lon="2.64931">
        <ele>1052.3</ele>
        <time>2014-05-31T12:44:22Z</time>
      </trkpt>
      <trkpt lat="45.03209" lon="2.64918">
        <ele>1054.1</ele>
        <time>2014-05-31T12:44:40Z</time>
      </trkpt>
      <trkpt lat="45.03203" lon="2.64908">
        <ele>1055.8</ele>
        <time>2014-05-31T12:44:51Z</time>
      </trkpt>
      <trkpt lat="45.03189" lon="2.64888">
        <ele>1052.6</ele>
        <time>2014-05-31T12:45:07Z</time>
      </trkpt>
      <trkpt lat="45.0319" lon="2.64874">
        <ele>1050.8</ele>
        <time>2014-05-31T12:45:18Z</time>
      </trkpt>
      <trkpt lat="45.03197" lon="2.64866">
        <ele>1049.2</ele>
        <time>2014-05-31T12:45:28Z</time>
      </trkpt>
      <trkpt lat="45.03204" lon="2.64858">
        <ele>1048.1</ele>
        <time>2014-05-31T12:45:38Z</time>
      </trkpt>
      <trkpt lat="45.03209" lon="2.64847">
        <ele>1046.3</ele>
        <time>2014-05-31T12:45:50Z</time>
      </trkpt>
      <trkpt lat="45.03216" lon="2.64838">
        <ele>1045.1</ele>
        <time>2014-05-31T12:46:10Z</time>
      </trkpt>
      <trkpt lat="45.03207" lon="2.64815">
        <ele>1045.8</ele>
        <time>2014-05-31T12:47:16Z</time>
      </trkpt>
      <trkpt lat="45.03225" lon="2.64827">
        <ele>1044.3</ele>
        <time>2014-05-31T12:48:21Z</time>
      </trkpt>
      <trkpt lat="45.03209" lon="2.64812">
        <ele>1045.5</ele>
        <time>2014-05-31T12:48:55Z</time>
      </trkpt>
      <trkpt lat="45.03213" lon="2.648">
        <ele>1045.5</ele>
        <time>2014-05-31T12:49:10Z</time>
      </trkpt>
      <trkpt lat="45.03221" lon="2.64795">
        <ele>1045.1</ele>
        <time>2014-05-31T12:49:28Z</time>
      </trkpt>
      <trkpt lat="45.03237" lon="2.64795">
        <ele>1040.8</ele>
        <time>2014-05-31T12:50:28Z</time>
      </trkpt>
      <trkpt lat="45.03237" lon="2.64782">
        <ele>1041.6</ele>
        <time>2014-05-31T12:50:46Z</time>
      </trkpt>
      <trkpt lat="45.03229" lon="2.64759">
        <ele>1042</ele>
        <time>2014-05-31T12:51:40Z</time>
      </trkpt>
      <trkpt lat="45.03222" lon="2.6475">
        <ele>1039.6</ele>
        <time>2014-05-31T12:52:21Z</time>
      </trkpt>
      <trkpt lat="45.03223" lon="2.64776">
        <ele>1036.1</ele>
        <time>2014-05-31T12:53:36Z</time>
      </trkpt>
      <trkpt lat="45.03223" lon="2.64774">
        <ele>1035.9</ele>
        <time>2014-05-31T12:55:15Z</time>
      </trkpt>
      <trkpt lat="45.0322" lon="2.64783">
        <ele>1035.7</ele>
        <time>2014-05-31T12:55:33Z</time>
      </trkpt>
      <trkpt lat="45.03229" lon="2.64792">
        <ele>1035.5</ele>
        <time>2014-05-31T12:55:38Z</time>
      </trkpt>
      <trkpt lat="45.03238" lon="2.64798">
        <ele>1035.8</ele>
        <time>2014-05-31T12:55:42Z</time>
      </trkpt>
      <trkpt lat="45.03246" lon="2.64802">
        <ele>1035</ele>
        <time>2014-05-31T12:55:47Z</time>
      </trkpt>
      <trkpt lat="45.03255" lon="2.64797">
        <ele>1036</ele>
        <time>2014-05-31T12:55:59Z</time>
      </trkpt>
      <trkpt lat="45.0325" lon="2.64785">
        <ele>1035.4</ele>
        <time>2014-05-31T12:56:09Z</time>
      </trkpt>
      <trkpt lat="45.03243" lon="2.64776">
        <ele>1034.9</ele>
        <time>2014-05-31T12:56:19Z</time>
      </trkpt>
      <trkpt lat="45.03228" lon="2.64759">
        <ele>1034.7</ele>
        <time>2014-05-31T12:57:08Z</time>
      </trkpt>
      <trkpt lat="45.03233" lon="2.64771">
        <ele>1035.2</ele>
        <time>2014-05-31T12:57:26Z</time>
      </trkpt>
      <trkpt lat="45.03247" lon="2.64788">
        <ele>1034.2</ele>
        <time>2014-05-31T12:57:49Z</time>
      </trkpt>
      <trkpt lat="45.03255" lon="2.64794">
        <ele>1034.2</ele>
        <time>2014-05-31T12:57:59Z</time>
      </trkpt>
      <trkpt lat="45.03252" lon="2.6478">
        <ele>1033.3</ele>
        <time>2014-05-31T12:58:25Z</time>
      </trkpt>
      <trkpt lat="45.03245" lon="2.64771">
        <ele>1034.1</ele>
        <time>2014-05-31T12:58:32Z</time>
      </trkpt>
      <trkpt lat="45.03226" lon="2.64761">
        <ele>1033.5</ele>
        <time>2014-05-31T12:58:45Z</time>
      </trkpt>
      <trkpt lat="45.03219" lon="2.64753">
        <ele>1031.8</ele>
        <time>2014-05-31T12:59:43Z</time>
      </trkpt>
      <trkpt lat="45.03206" lon="2.64736">
        <ele>1031.3</ele>
        <time>2014-05-31T13:00:08Z</time>
      </trkpt>
      <trkpt lat="45.03198" lon="2.6473">
        <ele>1029.2</ele>
        <time>2014-05-31T13:00:23Z</time>
      </trkpt>
      <trkpt lat="45.03189" lon="2.64723">
        <ele>1026.5</ele>
        <time>2014-05-31T13:00:34Z</time>
      </trkpt>
      <trkpt lat="45.03183" lon="2.64712">
        <ele>1025.7</ele>
        <time>2014-05-31T13:00:42Z</time>
      </trkpt>
      <trkpt lat="45.03179" lon="2.64699">
        <ele>1026.5</ele>
        <time>2014-05-31T13:00:50Z</time>
      </trkpt>
      <trkpt lat="45.03173" lon="2.64673">
        <ele>1026.2</ele>
        <time>2014-05-31T13:01:06Z</time>
      </trkpt>
      <trkpt lat="45.03167" lon="2.64663">
        <ele>1025.9</ele>
        <time>2014-05-31T13:01:13Z</time>
      </trkpt>
      <trkpt lat="45.03159" lon="2.64654">
        <ele>1025.1</ele>
        <time>2014-05-31T13:01:20Z</time>
      </trkpt>
      <trkpt lat="45.03152" lon="2.64645">
        <ele>1025.9</ele>
        <time>2014-05-31T13:01:27Z</time>
      </trkpt>
      <trkpt lat="45.03146" lon="2.64636">
        <ele>1024.6</ele>
        <time>2014-05-31T13:01:35Z</time>
      </trkpt>
      <trkpt lat="45.03142" lon="2.64625">
        <ele>1024.2</ele>
        <time>2014-05-31T13:01:44Z</time>
      </trkpt>
      <trkpt lat="45.03138" lon="2.64613">
        <ele>1025.6</ele>
        <time>2014-05-31T13:02:01Z</time>
      </trkpt>
      <trkpt lat="45.0314" lon="2.64612">
        <ele>1025.7</ele>
        <time>2014-05-31T13:02:33Z</time>
      </trkpt>
      <trkpt lat="45.03131" lon="2.64609">
        <ele>1025.2</ele>
        <time>2014-05-31T13:03:11Z</time>
      </trkpt>
      <trkpt lat="45.03135" lon="2.64616">
        <ele>1022.8</ele>
        <time>2014-05-31T13:07:37Z</time>
      </trkpt>
      <trkpt lat="45.0313" lon="2.64604">
        <ele>1023.5</ele>
        <time>2014-05-31T13:09:26Z</time>
      </trkpt>
      <trkpt lat="45.03125" lon="2.64579">
        <ele>1023.6</ele>
        <time>2014-05-31T13:09:45Z</time>
      </trkpt>
      <trkpt lat="45.03118" lon="2.6457">
        <ele>1024.2</ele>
        <time>2014-05-31T13:10:15Z</time>
      </trkpt>
      <trkpt lat="45.03111" lon="2.6456">
        <ele>1024.2</ele>
        <time>2014-05-31T13:10:25Z</time>
      </trkpt>
      <trkpt lat="45.03105" lon="2.6455">
        <ele>1023.3</ele>
        <time>2014-05-31T13:10:34Z</time>
      </trkpt>
      <trkpt lat="45.03108" lon="2.64548">
        <ele>1022.4</ele>
        <time>2014-05-31T13:12:32Z</time>
      </trkpt>
      <trkpt lat="45.03104" lon="2.64556">
        <ele>1021.7</ele>
        <time>2014-05-31T13:12:57Z</time>
      </trkpt>
      <trkpt lat="45.03113" lon="2.64553">
        <ele>1021.3</ele>
        <time>2014-05-31T13:13:18Z</time>
      </trkpt>
      <trkpt lat="45.03123" lon="2.64556">
        <ele>1021.2</ele>
        <time>2014-05-31T13:13:29Z</time>
      </trkpt>
      <trkpt lat="45.03114" lon="2.64552">
        <ele>1020.2</ele>
        <time>2014-05-31T13:13:48Z</time>
      </trkpt>
      <trkpt lat="45.03109" lon="2.64554">
        <ele>1021.1</ele>
        <time>2014-05-31T13:14:40Z</time>
      </trkpt>
      <trkpt lat="45.03099" lon="2.64551">
        <ele>1021.1</ele>
        <time>2014-05-31T13:14:55Z</time>
      </trkpt>
      <trkpt lat="45.03088" lon="2.6453">
        <ele>1021.9</ele>
        <time>2014-05-31T13:15:17Z</time>
      </trkpt>
      <trkpt lat="45.03083" lon="2.64518">
        <ele>1021.1</ele>
        <time>2014-05-31T13:15:26Z</time>
      </trkpt>
      <trkpt lat="45.03077" lon="2.64509">
        <ele>1021.6</ele>
        <time>2014-05-31T13:15:35Z</time>
      </trkpt>
      <trkpt lat="45.03071" lon="2.64499">
        <ele>1020.2</ele>
        <time>2014-05-31T13:15:43Z</time>
      </trkpt>
      <trkpt lat="45.03064" lon="2.6449">
        <ele>1020.3</ele>
        <time>2014-05-31T13:15:51Z</time>
      </trkpt>
      <trkpt lat="45.03057" lon="2.64481">
        <ele>1020</ele>
        <time>2014-05-31T13:16:00Z</time>
      </trkpt>
      <trkpt lat="45.0304" lon="2.64469">
        <ele>1020.7</ele>
        <time>2014-05-31T13:16:25Z</time>
      </trkpt>
      <trkpt lat="45.03033" lon="2.6446">
        <ele>1020.2</ele>
        <time>2014-05-31T13:16:38Z</time>
      </trkpt>
      <trkpt lat="45.03026" lon="2.6445">
        <ele>1020.7</ele>
        <time>2014-05-31T13:16:47Z</time>
      </trkpt>
      <trkpt lat="45.03018" lon="2.64442">
        <ele>1021</ele>
        <time>2014-05-31T13:16:55Z</time>
      </trkpt>
      <trkpt lat="45.03011" lon="2.64433">
        <ele>1021.8</ele>
        <time>2014-05-31T13:17:04Z</time>
      </trkpt>
      <trkpt lat="45.02995" lon="2.64416">
        <ele>1023.1</ele>
        <time>2014-05-31T13:17:21Z</time>
      </trkpt>
      <trkpt lat="45.02986" lon="2.6441">
        <ele>1023.7</ele>
        <time>2014-05-31T13:17:29Z</time>
      </trkpt>
      <trkpt lat="45.02977" lon="2.64405">
        <ele>1022.5</ele>
        <time>2014-05-31T13:17:37Z</time>
      </trkpt>
      <trkpt lat="45.02968" lon="2.64399">
        <ele>1021.2</ele>
        <time>2014-05-31T13:17:45Z</time>
      </trkpt>
      <trkpt lat="45.02959" lon="2.64392">
        <ele>1020.9</ele>
        <time>2014-05-31T13:17:55Z</time>
      </trkpt>
      <trkpt lat="45.02952" lon="2.64385">
        <ele>1021</ele>
        <time>2014-05-31T13:18:02Z</time>
      </trkpt>
      <trkpt lat="45.02944" lon="2.64377">
        <ele>1020.6</ele>
        <time>2014-05-31T13:18:09Z</time>
      </trkpt>
      <trkpt lat="45.02929" lon="2.64361">
        <ele>1018.9</ele>
        <time>2014-05-31T13:18:23Z</time>
      </trkpt>
      <trkpt lat="45.02922" lon="2.64352">
        <ele>1019.8</ele>
        <time>2014-05-31T13:18:31Z</time>
      </trkpt>
      <trkpt lat="45.02915" lon="2.64343">
        <ele>1020.6</ele>
        <time>2014-05-31T13:18:40Z</time>
      </trkpt>
      <trkpt lat="45.02921" lon="2.64334">
        <ele>1020.5</ele>
        <time>2014-05-31T13:18:54Z</time>
      </trkpt>
      <trkpt lat="45.02925" lon="2.64323">
        <ele>1024.9</ele>
        <time>2014-05-31T13:19:10Z</time>
      </trkpt>
      <trkpt lat="45.02911" lon="2.64304">
        <ele>1025.2</ele>
        <time>2014-05-31T13:19:32Z</time>
      </trkpt>
      <trkpt lat="45.02903" lon="2.64296">
        <ele>1026.5</ele>
        <time>2014-05-31T13:19:40Z</time>
      </trkpt>
      <trkpt lat="45.02895" lon="2.64287">
        <ele>1026.4</ele>
        <time>2014-05-31T13:19:49Z</time>
      </trkpt>
      <trkpt lat="45.02889" lon="2.64277">
        <ele>1026.8</ele>
        <time>2014-05-31T13:19:58Z</time>
      </trkpt>
      <trkpt lat="45.02887" lon="2.64264">
        <ele>1028.8</ele>
        <time>2014-05-31T13:20:22Z</time>
      </trkpt>
      <trkpt lat="45.0288" lon="2.64241">
        <ele>1030.7</ele>
        <time>2014-05-31T13:20:42Z</time>
      </trkpt>
      <trkpt lat="45.02875" lon="2.64229">
        <ele>1032</ele>
        <time>2014-05-31T13:20:55Z</time>
      </trkpt>
      <trkpt lat="45.02868" lon="2.64221">
        <ele>1034.1</ele>
        <time>2014-05-31T13:21:06Z</time>
      </trkpt>
      <trkpt lat="45.0286" lon="2.64212">
        <ele>1034.3</ele>
        <time>2014-05-31T13:21:15Z</time>
      </trkpt>
      <trkpt lat="45.02856" lon="2.642">
        <ele>1035.9</ele>
        <time>2014-05-31T13:21:24Z</time>
      </trkpt>
      <trkpt lat="45.02845" lon="2.64178">
        <ele>1035.7</ele>
        <time>2014-05-31T13:21:40Z</time>
      </trkpt>
      <trkpt lat="45.02841" lon="2.64165">
        <ele>1037.2</ele>
        <time>2014-05-31T13:21:48Z</time>
      </trkpt>
      <trkpt lat="45.02838" lon="2.64153">
        <ele>1037.2</ele>
        <time>2014-05-31T13:21:56Z</time>
      </trkpt>
      <trkpt lat="45.02832" lon="2.64142">
        <ele>1037.2</ele>
        <time>2014-05-31T13:22:05Z</time>
      </trkpt>
      <trkpt lat="45.02826" lon="2.64132">
        <ele>1034.7</ele>
        <time>2014-05-31T13:22:14Z</time>
      </trkpt>
      <trkpt lat="45.02817" lon="2.64126">
        <ele>1032.8</ele>
        <time>2014-05-31T13:22:24Z</time>
      </trkpt>
      <trkpt lat="45.02808" lon="2.6413">
        <ele>1032.5</ele>
        <time>2014-05-31T13:23:34Z</time>
      </trkpt>
    </trkseg>
  </trk>
</gpx>